LH595 / D-AIKS 7700 Squawk Report (14th of February, 2019)

Aircraft A333 Reg No. D-AIKS Age 5 years old
Model A330 Jet engines 2 First flight 12-02-14
Registered 13-03-14 Rollout 02-14 Delivered 13-03-14
Construction No. 1497 Line No. N/A Series 343E
ADSHEX 3C6573 Airline name Lufthansa Owner N/A
Airfield based Frankfurt-Main~Hessen~D First tracked 2017-07-13 03:46:00

Flight history for D-AIKS

Route Flight No Date Playback
Dallas Fort Worth (DFW) - Frankfurt Main (FRA) LH439 2019-03-18 23:53:00
Frankfurt Main (FRA) - Dallas Fort Worth (DFW) LH438 2019-03-18 22:21:00
Almaty (ALA) - Astana Intl (TSE) - Frankfurt Main (FRA) LH649 2019-03-18 09:17:00
Frankfurt Main (FRA) - Almaty (ALA) LH648 2019-03-17 16:07:00
Almaty (ALA) - Frankfurt Main (FRA) LH647 2019-03-17 12:46:00
Frankfurt Main (FRA) - Astana Intl (TSE) - Almaty (ALA) LH646 2019-03-16 17:12:00
Imam Khomeini (IKA) - Frankfurt Main (FRA) LH601 2019-03-15 04:17:00
Frankfurt Main (FRA) - Imam Khomeini (IKA) LH600 2019-03-14 17:14:00
Port Harcourt International (PHC) - Nnamdi Azikiwe International (ABV) - Frankfurt Main (FRA) LH595 2019-03-14 13:05:00
Frankfurt Main (FRA) - Nnamdi Azikiwe International (ABV) - Port Harcourt International (PHC) LH594 2019-03-14 01:35:00
Dallas Fort Worth (DFW) - Frankfurt Main (FRA) LH439 2019-03-13 08:10:00
Frankfurt Main (FRA) - Dallas Fort Worth (DFW) LH438 2019-03-12 22:56:00
Imam Khomeini (IKA) - Frankfurt Main (FRA) LH601 2019-03-12 09:25:00
Frankfurt Main (FRA) - Imam Khomeini (IKA) LH600 2019-03-11 16:57:00
Philadelphia Intl (PHL) - Frankfurt Main (FRA) LH427 2019-03-11 13:01:00
Frankfurt Main (FRA) - Philadelphia Intl (PHL) LH426 2019-03-10 23:11:00
Seattle Tacoma Intl (SEA) - Frankfurt Main (FRA) LH491 2019-03-10 12:08:00
Frankfurt Main (FRA) - Seattle Tacoma Intl (SEA) LH490 2019-03-09 22:21:00
Malabo (SSG) - Murtala Muhammed (LOS) - Frankfurt Main (FRA) LH569 2019-03-08 04:31:00
Frankfurt Main (FRA) - Murtala Muhammed (LOS) - Malabo (SSG) LH568 2019-03-08 02:27:00
Time Lat Lon Altitude Heading Speed Vertical Rate
2019-02-14 04:05:50 GMT 50.046707 8.579816 0 70 13 0
2019-02-14 04:05:34 GMT 50.045784 8.580341 0 11 14 0
2019-02-14 04:05:24 GMT 50.045341 8.579821 0 67 16 0
2019-02-14 04:05:13 GMT 50.045094 8.578768 0 70 15 0
2019-02-14 04:05:04 GMT 50.044876 8.577847 0 67 18 0
2019-02-14 04:04:51 GMT 50.044540 8.576444 0 70 17 0
2019-02-14 04:04:41 GMT 50.044273 8.575349 0 67 19 0
2019-02-14 04:04:35 GMT 50.044086 8.574606 0 70 23 0
2019-02-14 04:04:26 GMT 50.043720 8.573076 0 70 22 0
2019-02-14 04:04:18 GMT 50.043468 8.571974 0 70 21 0
2019-02-14 04:04:15 GMT 50.043365 8.571544 0 67 21 0
2019-02-14 04:04:11 GMT 50.043247 8.571099 0 70 23 0
2019-02-14 04:04:05 GMT 50.042999 8.570059 0 70 22 0
2019-02-14 04:04:01 GMT 50.042900 8.569614 0 70 21 0
2019-02-14 04:03:51 GMT 50.042572 8.568204 0 70 20 0
2019-02-14 04:03:44 GMT 50.042347 8.567276 0 70 20 0
2019-02-14 04:03:40 GMT 50.042213 8.566719 0 70 20 0
2019-02-14 04:03:33 GMT 50.041992 8.565812 0 70 20 0
2019-02-14 04:03:30 GMT 50.041908 8.565476 0 70 19 0
2019-02-14 04:03:23 GMT 50.041691 8.564567 0 70 19 0
2019-02-14 04:03:19 GMT 50.041584 8.564121 0 70 19 0
2019-02-14 04:03:06 GMT 50.041203 8.562488 0 70 17 0
2019-02-14 04:03:03 GMT 50.041130 8.562210 0 70 17 0
2019-02-14 04:03:00 GMT 50.041031 8.561747 0 70 16 0
2019-02-14 04:02:53 GMT 50.040874 8.561096 0 70 15 0
2019-02-14 04:02:47 GMT 50.040745 8.560595 0 70 15 0
2019-02-14 04:02:42 GMT 50.040619 8.560066 0 70 14 0
2019-02-14 04:02:37 GMT 50.040516 8.559596 0 70 12 0
2019-02-14 04:02:30 GMT 50.040379 8.559018 0 70 13 0
2019-02-14 04:02:27 GMT 50.040318 8.558776 0 67 12 0
2019-02-14 04:02:22 GMT 50.040211 8.558368 0 70 12 0
2019-02-14 04:02:18 GMT 50.040138 8.558060 0 70 11 0
2019-02-14 04:02:11 GMT 50.040035 8.557609 0 70 10 0
2019-02-14 04:02:08 GMT 50.039989 8.557385 0 70 10 0
2019-02-14 04:02:00 GMT 50.039864 8.556886 0 67 9 0
2019-02-14 04:01:56 GMT 50.039814 8.556661 0 73 9 0
2019-02-14 04:01:51 GMT 50.039757 8.556382 0 70 9 0
2019-02-14 04:01:47 GMT 50.039711 8.556160 0 64 10 0
2019-02-14 04:01:41 GMT 50.039543 8.555838 0 8 9 0
2019-02-14 04:01:37 GMT 50.039410 8.555807 0 303 9 0
2019-02-14 04:01:30 GMT 50.039162 8.556104 0 286 9 0
2019-02-14 04:01:27 GMT 50.039127 8.556234 0 284 10 0
2019-02-14 04:01:21 GMT 50.039074 8.556687 0 281 11 0
2019-02-14 04:01:17 GMT 50.038925 8.558115 0 278 14 0
2019-02-14 04:01:07 GMT 50.038925 8.558115 0 278 22 0
2019-02-14 04:00:59 GMT 50.038803 8.559073 0 281 20 0
2019-02-14 04:00:55 GMT 50.038746 8.559667 0 250 130 0
2019-02-14 04:00:49 GMT 50.038902 8.560861 0 247 41 0
2019-02-14 04:00:46 GMT 50.039108 8.561711 0 247 51 0
2019-02-14 04:00:36 GMT 50.040207 8.566318 0 250 86 0
2019-02-14 04:00:28 GMT 50.041164 8.570394 0 250 110 0
2019-02-14 04:00:22 GMT 50.042221 8.574775 0 250 125 0
2019-02-14 04:00:19 GMT 50.043125 8.578570 0 250 140 0
2019-02-14 04:00:14 GMT 50.043945 8.582048 0 250 140 0
2019-02-14 04:00:08 GMT 50.045380 8.588042 -250 250 139 -768
2019-02-14 04:00:04 GMT 50.046341 8.591959 -175 250 139 -768
2019-02-14 03:59:58 GMT 50.047668 8.597597 -100 251 140 -768
2019-02-14 03:59:55 GMT 50.048492 8.601066 -50 251 141 -704
2019-02-14 03:59:51 GMT 50.049057 8.603483 -25 250 142 -768
2019-02-14 03:59:47 GMT 50.050079 8.607714 50 250 142 -704
2019-02-14 03:59:43 GMT 50.051010 8.611691 150 250 141 -768
2019-02-14 03:59:37 GMT 50.052383 8.617473 200 250 141 -768
2019-02-14 03:59:34 GMT 50.053200 8.620630 225 250 140 -704
2019-02-14 03:59:26 GMT 50.054855 8.627665 325 250 139 -704
2019-02-14 03:59:23 GMT 50.055527 8.630503 400 250 139 -704
2019-02-14 03:59:15 GMT 50.057510 8.638940 450 250 138 -640
2019-02-14 03:59:11 GMT 50.058426 8.642699 625 250 138 -704
2019-02-14 03:59:06 GMT 50.059250 8.646240 550 250 138 -704
2019-02-14 03:59:03 GMT 50.060120 8.649782 600 250 138 -640
2019-02-14 03:59:00 GMT 50.060760 8.652384 625 250 138 -640
2019-02-14 03:58:57 GMT 50.062042 8.657588 700 249 139 -704
2019-02-14 03:58:54 GMT 50.062042 8.657588 700 249 139 -704
2019-02-14 03:58:51 GMT 50.062881 8.661087 750 250 138 -896
2019-02-14 03:58:44 GMT 50.064377 8.667273 825 250 137 -896
2019-02-14 03:58:40 GMT 50.065247 8.670959 1,500 249 145 -768
2019-02-14 03:58:35 GMT 50.066299 8.675802 975 251 136 -832
2019-02-14 03:58:31 GMT 50.067352 8.680461 1,050 250 136 -768
2019-02-14 03:58:25 GMT 50.068329 8.684544 1,100 250 136 -768
2019-02-14 03:58:22 GMT 50.069275 8.688379 1,175 250 138 -576
2019-02-14 03:58:19 GMT 50.069595 8.689896 1,175 250 138 -576
2019-02-14 03:58:14 GMT 50.070984 8.695679 1,250 251 140 -576
2019-02-14 03:58:10 GMT 50.071747 8.698859 1,275 251 142 -576
2019-02-14 03:58:07 GMT 50.072937 8.704067 1,325 251 143 -704
2019-02-14 03:58:04 GMT 50.072937 8.704067 1,325 251 143 -704
2019-02-14 03:58:01 GMT 50.073761 8.707749 1,375 250 143 -768
2019-02-14 03:57:58 GMT 50.074219 8.709701 1,400 250 143 -768
2019-02-14 03:57:54 GMT 50.075272 8.713965 1,500 249 145 -768
2019-02-14 03:57:51 GMT 50.076008 8.716835 1,500 249 145 -768
2019-02-14 03:57:48 GMT 50.076828 8.720181 1,525 250 146 -832
2019-02-14 03:57:45 GMT 50.077423 8.722494 1,600 250 147 -896
2019-02-14 03:57:41 GMT 50.078339 8.726469 1,625 250 148 -832
2019-02-14 03:57:38 GMT 50.079174 8.729900 1,675 250 149 -768
2019-02-14 03:57:35 GMT 50.079922 8.733092 1,750 251 149 -768
2019-02-14 03:57:32 GMT 50.080719 8.736516 1,775 251 150 -896
2019-02-14 03:57:29 GMT 50.081268 8.738974 1,825 251 151 -896
2019-02-14 03:57:26 GMT 50.082001 8.742226 1,875 251 151 -832
2019-02-14 03:57:23 GMT 50.082825 8.745912 1,900 251 151 -832
2019-02-14 03:57:19 GMT 50.083645 8.749423 1,950 250 152 -832
2019-02-14 03:57:15 GMT 50.084435 8.752689 2,000 250 153 -832
2019-02-14 03:57:12 GMT 50.085552 8.757291 2,075 249 155 -768
2019-02-14 03:57:09 GMT 50.086212 8.759934 2,100 249 155 -768
2019-02-14 03:57:05 GMT 50.087090 8.763452 2,125 249 155 -832
2019-02-14 03:57:02 GMT 50.087929 8.766793 2,175 249 156 -960
2019-02-14 03:56:59 GMT 50.088821 8.770415 2,250 250 156 -960
2019-02-14 03:56:56 GMT 50.090626 8.777779 2,325 250 156 -960
2019-02-14 03:56:51 GMT 50.090626 8.777779 2,350 250 156 -960
2019-02-14 03:56:48 GMT 50.091568 8.781762 2,400 250 157 -960
2019-02-14 03:56:45 GMT 50.092209 8.784534 2,500 250 157 -960
2019-02-14 03:56:41 GMT 50.093185 8.788766 2,500 250 157 -960
2019-02-14 03:56:38 GMT 50.093948 8.791954 2,575 251 158 -960
2019-02-14 03:56:35 GMT 50.094769 8.795595 2,625 251 158 -896
2019-02-14 03:56:32 GMT 50.095467 8.798638 2,825 251 160 -832
2019-02-14 03:56:29 GMT 50.096237 8.801784 2,700 251 159 -896
2019-02-14 03:56:26 GMT 50.097050 8.805468 2,750 251 159 -896
2019-02-14 03:56:22 GMT 50.097794 8.808722 2,825 251 160 -832
2019-02-14 03:56:19 GMT 50.098572 8.812192 2,900 251 160 -896
2019-02-14 03:56:16 GMT 50.099579 8.816528 2,925 252 161 -832
2019-02-14 03:56:13 GMT 50.100311 8.819795 2,950 252 162 -640
2019-02-14 03:56:10 GMT 50.101521 8.825585 3,125 251 155 -320
2019-02-14 03:56:07 GMT 50.102264 8.829148 3,050 253 163 -128
2019-02-14 03:56:04 GMT 50.102264 8.829148 3,050 254 161 -64
2019-02-14 03:56:01 GMT 50.102962 8.832711 3,050 254 161 -128
2019-02-14 03:55:57 GMT 50.103882 8.837417 3,050 253 161 -128
2019-02-14 03:55:54 GMT 50.104477 8.840525 3,075 252 159 -128
2019-02-14 03:55:51 GMT 50.105198 8.843771 3,075 252 159 -128
2019-02-14 03:55:48 GMT 50.105896 8.847030 3,075 251 157 -256
2019-02-14 03:55:45 GMT 50.106781 8.851120 3,100 251 157 -192
2019-02-14 03:55:41 GMT 50.107544 8.854330 3,100 250 156 -384
2019-02-14 03:55:38 GMT 50.108177 8.857059 3,125 250 155 -384
2019-02-14 03:55:35 GMT 50.108875 8.860028 3,125 251 155 -320
2019-02-14 03:55:32 GMT 50.109833 8.864015 3,450 329 188 -64
2019-02-14 03:55:29 GMT 50.110565 8.867340 3,175 254 155 -256
2019-02-14 03:55:26 GMT 50.111664 8.876230 3,200 265 155 -320
2019-02-14 03:55:22 GMT 50.111664 8.876230 3,200 269 156 -384
2019-02-14 03:55:19 GMT 50.111622 8.879106 3,225 275 156 -384
2019-02-14 03:55:16 GMT 50.111530 8.881407 3,225 278 156 -448
2019-02-14 03:55:13 GMT 50.111252 8.884525 3,250 282 157 -512
2019-02-14 03:55:10 GMT 50.110840 8.887867 3,275 284 157 -704
2019-02-14 03:55:06 GMT 50.110180 8.892096 3,300 285 159 -448
2019-02-14 03:55:03 GMT 50.109467 8.896324 3,325 291 160 -384
2019-02-14 03:55:00 GMT 50.108780 8.899359 3,350 294 161 -448
2019-02-14 03:54:55 GMT 50.106857 8.905286 3,375 305 165 -320
2019-02-14 03:54:50 GMT 50.104889 8.909551 3,400 309 169 64
2019-02-14 03:54:46 GMT 50.102917 8.913104 3,400 312 174 -64
2019-02-14 03:54:43 GMT 50.101089 8.916345 3,400 314 178 -256
2019-02-14 03:54:40 GMT 50.099194 8.919562 3,425 316 181 -256
2019-02-14 03:54:36 GMT 50.096817 8.923200 3,425 322 184 -64
2019-02-14 03:54:32 GMT 50.094677 8.925872 3,450 329 188 -64
2019-02-14 03:54:29 GMT 50.092674 8.927950 3,450 332 190 128
2019-02-14 03:54:26 GMT 50.089882 8.930326 3,425 338 197 320
2019-02-14 03:54:23 GMT 50.087402 8.931957 3,400 340 203 64
2019-02-14 03:54:20 GMT 50.085133 8.933295 3,400 340 203 64
2019-02-14 03:54:17 GMT 50.079407 8.936561 3,400 341 211 0
2019-02-14 03:54:11 GMT 50.072983 8.940050 3,400 342 225 0
2019-02-14 03:54:07 GMT 50.072983 8.940050 3,400 342 225 0
2019-02-14 03:54:04 GMT 50.070610 8.941238 3,400 342 228 64
2019-02-14 03:54:01 GMT 50.066978 8.943094 3,400 342 233 0
2019-02-14 03:53:58 GMT 50.064091 8.944578 3,400 342 238 -256
2019-02-14 03:53:55 GMT 50.060944 8.946268 3,400 342 243 -320
2019-02-14 03:53:51 GMT 50.055359 8.949159 3,450 342 250 -640
2019-02-14 03:53:48 GMT 50.053162 8.950316 3,450 342 252 -896
2019-02-14 03:53:44 GMT 50.048916 8.952521 3,500 342 255 -1408
2019-02-14 03:53:40 GMT 50.044647 8.954797 3,600 342 259 -1536
2019-02-14 03:53:37 GMT 50.041698 8.956381 3,675 342 260 -1472
2019-02-14 03:53:34 GMT 50.037556 8.958534 3,775 342 263 -1472
2019-02-14 03:53:31 GMT 50.032745 8.961085 3,850 342 265 -1536
2019-02-14 03:53:28 GMT 50.029495 8.962748 3,950 342 266 -1472
2019-02-14 03:53:24 GMT 50.025742 8.964771 4,025 342 268 -1472
2019-02-14 03:53:21 GMT 50.022194 8.966551 4,100 342 270 -1472
2019-02-14 03:53:18 GMT 50.017914 8.968778 4,350 342 274 -1664
2019-02-14 03:53:15 GMT 50.014801 8.970337 4,250 342 274 -1664
2019-02-14 03:53:10 GMT 50.009254 8.973158 4,400 343 276 -1472
2019-02-14 03:53:07 GMT 50.005856 8.974865 4,500 343 277 -1472
2019-02-14 03:53:04 GMT 50.001434 8.977018 4,550 343 278 -1536
2019-02-14 03:53:01 GMT 49.997009 8.979171 4,625 343 281 -1536
2019-02-14 03:52:58 GMT 49.994541 8.980432 4,775 343 284 -1536
2019-02-14 03:52:55 GMT 49.990768 8.982263 4,775 343 284 -1536
2019-02-14 03:52:52 GMT 49.987003 8.984070 4,850 343 286 -1472
2019-02-14 03:52:47 GMT 49.980194 8.987395 4,975 343 289 -1536
2019-02-14 03:52:44 GMT 49.976624 8.989202 5,125 342 294 -1536
2019-02-14 03:52:38 GMT 49.968384 8.993321 5,200 342 295 -1600
2019-02-14 03:52:35 GMT 49.966053 8.994537 5,250 342 296 -1792
2019-02-14 03:52:32 GMT 49.961609 8.996791 5,325 342 296 -1792
2019-02-14 03:52:28 GMT 49.955841 8.999682 5,425 342 297 -1472
2019-02-14 03:52:25 GMT 49.951389 9.001960 5,575 342 299 -1024
2019-02-14 03:52:22 GMT 49.947712 9.003816 5,600 342 299 -1024
2019-02-14 03:52:18 GMT 49.942963 9.006191 5,650 342 300 -1024
2019-02-14 03:52:15 GMT 49.938950 9.008211 5,725 342 302 -960
2019-02-14 03:52:12 GMT 49.934189 9.010596 5,775 342 303 -1024
2019-02-14 03:52:09 GMT 49.931488 9.011969 5,800 342 306 -1024
2019-02-14 03:52:06 GMT 49.927734 9.013849 5,850 342 306 -1024
2019-02-14 03:52:03 GMT 49.922333 9.016595 6,775 351 330 -960
2019-02-14 03:51:59 GMT 49.917480 9.019053 6,225 342 314 -1024
2019-02-14 03:51:56 GMT 49.913403 9.021186 6,025 342 310 -1024
2019-02-14 03:51:52 GMT 49.906837 9.024526 6,350 342 315 -960
2019-02-14 03:51:48 GMT 49.902973 9.026456 6,150 342 314 -1024
2019-02-14 03:51:45 GMT 49.897202 9.029461 6,225 342 316 -960
2019-02-14 03:51:41 GMT 49.892452 9.031949 6,250 342 316 -960
2019-02-14 03:51:38 GMT 49.889103 9.033657 6,500 346 325 -1024
2019-02-14 03:51:35 GMT 49.880119 9.038185 6,425 344 322 -960
2019-02-14 03:51:32 GMT 49.880119 9.038185 6,425 344 322 -960
2019-02-14 03:51:28 GMT 49.870010 9.042543 6,500 347 326 -1024
2019-02-14 03:51:25 GMT 49.870010 9.042543 6,550 348 327 -960
2019-02-14 03:51:22 GMT 49.865295 9.044133 6,600 351 329 -960
2019-02-14 03:51:19 GMT 49.860191 9.045460 6,650 353 330 -1152
2019-02-14 03:51:16 GMT 49.855682 9.046446 6,700 355 333 -1472
2019-02-14 03:51:13 GMT 49.851723 9.047093 6,750 356 333 -1536
2019-02-14 03:51:08 GMT 49.844009 9.047964 6,925 357 334 -1472
2019-02-14 03:51:05 GMT 49.838470 9.048470 7,000 357 335 -1472
2019-02-14 03:51:02 GMT 49.834763 9.048831 7,000 357 335 -1472
2019-02-14 03:50:58 GMT 49.825745 9.049765 7,200 357 337 -1472
2019-02-14 03:50:55 GMT 49.824188 9.049916 7,200 357 337 -1472
2019-02-14 03:50:52 GMT 49.819519 9.050349 7,275 357 338 -1536
2019-02-14 03:50:48 GMT 49.812618 9.051027 7,375 357 340 -1472
2019-02-14 03:50:45 GMT 49.808533 9.051433 7,475 357 341 -1472
2019-02-14 03:50:42 GMT 49.804138 9.051867 7,550 357 342 -1728
2019-02-14 03:50:39 GMT 49.798744 9.052363 7,775 357 343 -1984
2019-02-14 03:50:36 GMT 49.794022 9.052879 7,775 357 343 -1984
2019-02-14 03:50:32 GMT 49.788300 9.053385 7,850 357 343 -2176
2019-02-14 03:50:29 GMT 49.783264 9.053891 7,900 357 343 -2176
2019-02-14 03:50:25 GMT 49.775940 9.054614 8,100 357 343 -2176
2019-02-14 03:50:22 GMT 49.771511 9.055110 8,175 357 343 -2176
2019-02-14 03:50:17 GMT 49.764221 9.055842 8,350 357 342 -2176
2019-02-14 03:50:14 GMT 49.759174 9.056372 8,700 357 342 -2240
2019-02-14 03:50:11 GMT 49.755386 9.056710 8,525 357 342 -2240
2019-02-14 03:50:07 GMT 49.748108 9.057432 8,675 357 342 -2240
2019-02-14 03:50:04 GMT 49.742416 9.058005 9,925 357 339 -2240
2019-02-14 03:49:57 GMT 49.730732 9.059193 9,150 357 341 -2240
2019-02-14 03:49:54 GMT 49.727894 9.059489 9,200 357 340 -2240
2019-02-14 03:49:51 GMT 49.722565 9.060035 9,275 357 340 -2240
2019-02-14 03:49:46 GMT 49.714417 9.060830 9,800 357 338 -2240
2019-02-14 03:49:43 GMT 49.711552 9.061123 9,525 357 339 -2240
2019-02-14 03:49:40 GMT 49.706245 9.061642 9,725 357 338 -2176
2019-02-14 03:49:36 GMT 49.699677 9.062347 9,875 357 338 -2240
2019-02-14 03:49:33 GMT 49.694687 9.062853 9,975 357 337 -2240
2019-02-14 03:49:30 GMT 49.691254 9.063127 10,250 357 337 -2240
2019-02-14 03:49:27 GMT 49.685345 9.063721 10,250 357 337 -2240
2019-02-14 03:49:24 GMT 49.681293 9.064166 10,250 357 337 -2240
2019-02-14 03:49:20 GMT 49.674774 9.064805 10,450 357 336 -2112
2019-02-14 03:49:16 GMT 49.667328 9.065502 10,625 357 336 -1728
2019-02-14 03:49:13 GMT 49.663559 9.065889 10,725 357 337 -1536
2019-02-14 03:49:10 GMT 49.657970 9.066467 10,775 357 338 -1728
2019-02-14 03:49:05 GMT 49.646713 9.067624 13,625 357 360 -1984
2019-02-14 03:49:02 GMT 49.646713 9.067624 11,025 357 339 -1792
2019-02-14 03:48:59 GMT 49.642365 9.068057 11,075 357 339 -1792
2019-02-14 03:48:56 GMT 49.636696 9.068620 11,350 357 341 -1600
2019-02-14 03:48:53 GMT 49.632294 9.069069 11,250 357 340 -1664
2019-02-14 03:48:49 GMT 49.626663 9.069648 11,375 357 341 -1536
2019-02-14 03:48:46 GMT 49.619705 9.070370 11,475 357 342 -1408
2019-02-14 03:48:42 GMT 49.615608 9.070773 11,500 357 343 -1280
2019-02-14 03:48:39 GMT 49.608948 9.071382 11,725 357 346 -1152
2019-02-14 03:48:34 GMT 49.603504 9.071886 11,725 357 348 -1088
2019-02-14 03:48:31 GMT 49.597733 9.072480 11,775 357 354 -1472
2019-02-14 03:48:28 GMT 49.591911 9.073074 11,825 357 351 -1216
2019-02-14 03:48:24 GMT 49.586418 9.073594 11,900 357 353 -1216
2019-02-14 03:48:21 GMT 49.581848 9.074129 11,925 357 354 -1472
2019-02-14 03:48:18 GMT 49.574936 9.074779 12,050 357 355 -2048
2019-02-14 03:48:14 GMT 49.570358 9.075301 12,125 357 355 -2176
2019-02-14 03:48:10 GMT 49.563793 9.075969 12,275 357 356 -2112
2019-02-14 03:48:06 GMT 49.556900 9.076659 12,425 357 356 -2048
2019-02-14 03:48:03 GMT 49.551971 9.077231 14,450 357 366 -1152
2019-02-14 03:48:00 GMT 49.548016 9.077602 12,650 357 357 -2048
2019-02-14 03:47:57 GMT 49.542389 9.078176 12,700 357 357 -2048
2019-02-14 03:47:53 GMT 49.535446 9.078864 12,825 357 358 -1984
2019-02-14 03:47:50 GMT 49.530834 9.079309 12,950 357 359 -1984
2019-02-14 03:47:47 GMT 49.519867 9.080417 13,200 357 360 -1984
2019-02-14 03:47:43 GMT 49.519867 9.080417 13,175 357 360 -1984
2019-02-14 03:47:39 GMT 49.512867 9.081091 13,250 357 363 -1600
2019-02-14 03:47:36 GMT 49.501877 9.082152 13,450 357 362 -2048
2019-02-14 03:47:33 GMT 49.501877 9.082152 13,550 357 362 -1984
2019-02-14 03:47:30 GMT 49.497849 9.082585 13,725 357 363 -1600
2019-02-14 03:47:27 GMT 49.491501 9.083244 13,750 357 363 -1792
2019-02-14 03:47:24 GMT 49.486473 9.083689 13,850 357 363 -1600
2019-02-14 03:47:21 GMT 49.482098 9.084134 14,450 357 366 -1152
2019-02-14 03:47:18 GMT 49.477394 9.084580 13,975 357 364 -1216
2019-02-14 03:47:15 GMT 49.471710 9.085187 14,075 357 364 -1152
2019-02-14 03:47:12 GMT 49.461941 9.086139 14,325 357 365 -1152
2019-02-14 03:47:09 GMT 49.461941 9.086139 14,225 357 365 -1152
2019-02-14 03:47:06 GMT 49.456879 9.086633 14,250 357 365 -1152
2019-02-14 03:47:03 GMT 49.450790 9.087211 14,300 357 365 -1152
2019-02-14 03:46:59 GMT 49.444389 9.087846 14,375 357 366 -1152
2019-02-14 03:46:56 GMT 49.434265 9.088801 14,475 357 366 -1152
2019-02-14 03:46:53 GMT 49.434265 9.088801 14,525 357 366 -1152
2019-02-14 03:46:50 GMT 49.430557 9.089163 14,600 357 366 -1152
2019-02-14 03:46:47 GMT 49.425488 9.089669 14,575 357 366 -1152
2019-02-14 03:46:44 GMT 49.419392 9.090247 14,650 357 366 -1216
2019-02-14 03:46:41 GMT 49.414307 9.090694 14,750 357 366 -1152
2019-02-14 03:46:38 GMT 49.409893 9.091114 14,775 357 366 -1216
2019-02-14 03:46:34 GMT 49.402817 9.091820 14,950 357 366 -1216
2019-02-14 03:46:31 GMT 49.397045 9.092415 14,975 357 365 -1152
2019-02-14 03:46:28 GMT 49.392994 9.092777 15,000 357 365 -1088
2019-02-14 03:46:25 GMT 49.387253 9.093370 15,050 357 364 -1152
2019-02-14 03:46:21 GMT 49.380524 9.094074 15,200 357 363 -1216
2019-02-14 03:46:18 GMT 49.375854 9.094497 15,225 357 362 -1216
2019-02-14 03:46:13 GMT 49.366135 9.095451 15,300 357 360 -1216
2019-02-14 03:46:10 GMT 49.362827 9.095812 15,350 357 359 -1216
2019-02-14 03:46:07 GMT 49.358173 9.096246 15,450 357 357 -1152
2019-02-14 03:46:04 GMT 49.351913 9.096891 15,500 357 357 -1152
2019-02-14 03:46:01 GMT 49.347607 9.097258 15,550 357 356 -1216
2019-02-14 03:45:58 GMT 49.342667 9.097736 15,600 357 356 -1280
2019-02-14 03:45:55 GMT 49.338390 9.098198 15,650 357 357 -1472
2019-02-14 03:45:52 GMT 49.331451 9.098848 15,725 357 357 -1536
2019-02-14 03:45:49 GMT 49.328472 9.099137 15,825 357 357 -1600
2019-02-14 03:45:46 GMT 49.323864 9.099643 15,850 357 358 -1600
2019-02-14 03:45:43 GMT 49.317581 9.100201 15,925 357 358 -1600
2019-02-14 03:45:40 GMT 49.307667 9.101161 16,075 357 358 -1600
2019-02-14 03:45:37 GMT 49.303024 9.101609 16,125 357 359 -1600
2019-02-14 03:45:34 GMT 49.303024 9.101609 16,200 357 359 -1600
2019-02-14 03:45:31 GMT 49.297028 9.102243 16,250 357 360 -1600
2019-02-14 03:45:28 GMT 49.293045 9.102595 16,400 357 360 -1600
2019-02-14 03:45:25 GMT 49.287048 9.103229 16,650 357 361 -1600
2019-02-14 03:45:19 GMT 49.277756 9.104145 16,650 357 362 -1600
2019-02-14 03:45:16 GMT 49.272705 9.104630 16,675 357 362 -1600
2019-02-14 03:45:13 GMT 49.267731 9.105060 16,750 357 362 -1728
2019-02-14 03:45:10 GMT 49.262695 9.105570 16,800 357 362 -1792
2019-02-14 03:45:07 GMT 49.257996 9.106076 17,550 357 363 -1792
2019-02-14 03:45:04 GMT 49.252640 9.106582 17,050 357 363 -1792
2019-02-14 03:45:01 GMT 49.247936 9.107016 17,100 357 363 -1792
2019-02-14 03:44:58 GMT 49.243607 9.107455 17,175 357 363 -1792
2019-02-14 03:44:54 GMT 49.235550 9.108300 17,300 357 363 -1792
2019-02-14 03:44:50 GMT 49.229179 9.108895 17,475 357 363 -1792
2019-02-14 03:44:47 GMT 49.224152 9.109427 17,525 357 367 -1792
2019-02-14 03:44:44 GMT 49.213722 9.110413 17,650 357 364 -1792
2019-02-14 03:44:41 GMT 49.213722 9.110413 17,700 357 364 -1792
2019-02-14 03:44:38 GMT 49.209366 9.110835 17,825 357 365 -1728
2019-02-14 03:44:35 GMT 49.205292 9.111258 17,875 357 366 -1792
2019-02-14 03:44:32 GMT 49.199249 9.111821 18,000 357 366 -1792
2019-02-14 03:44:29 GMT 49.194489 9.112314 18,125 357 368 -1792
2019-02-14 03:44:26 GMT 49.182266 9.113511 18,175 357 369 -1792
2019-02-14 03:44:23 GMT 49.182266 9.113511 18,250 357 370 -1792
2019-02-14 03:44:20 GMT 49.178833 9.113793 18,275 357 370 -1792
2019-02-14 03:44:17 GMT 49.169590 9.114749 18,450 357 372 -1792
2019-02-14 03:44:11 GMT 49.163727 9.115272 18,600 357 374 -1728
2019-02-14 03:44:08 GMT 49.158234 9.115835 18,625 357 374 -1728
2019-02-14 03:44:05 GMT 49.153019 9.116339 18,750 357 375 -1792
2019-02-14 03:44:02 GMT 49.148876 9.116701 18,800 357 376 -1792
2019-02-14 03:43:59 GMT 49.137051 9.117930 18,950 357 377 -1792
2019-02-14 03:43:56 GMT 49.137051 9.117930 19,000 357 391 -1664
2019-02-14 03:43:53 GMT 49.129715 9.118652 19,150 357 379 -1792
2019-02-14 03:43:50 GMT 49.126190 9.119004 19,250 357 381 -1664
2019-02-14 03:43:47 GMT 49.119873 9.119638 19,325 357 382 -1536
2019-02-14 03:43:44 GMT 49.117405 9.119881 19,475 357 385 -1408
2019-02-14 03:43:41 GMT 49.104649 9.121110 19,500 357 384 -2048
2019-02-14 03:43:38 GMT 49.104649 9.121110 19,575 357 385 -2176
2019-02-14 03:43:35 GMT 49.100006 9.121610 19,650 357 385 -2048
2019-02-14 03:43:32 GMT 49.095016 9.122103 19,825 357 385 -1536
2019-02-14 03:43:29 GMT 49.089706 9.122628 19,875 357 385 -1536
2019-02-14 03:43:26 GMT 49.084396 9.123089 19,925 357 385 -1408
2019-02-14 03:43:23 GMT 49.079048 9.123640 20,125 357 385 -1408
2019-02-14 03:43:20 GMT 49.072311 9.124286 20,100 357 385 -1408
2019-02-14 03:43:17 GMT 49.066944 9.124796 20,150 357 386 -1408
2019-02-14 03:43:14 GMT 49.063404 9.125157 20,200 357 386 -1408
2019-02-14 03:43:11 GMT 49.057678 9.125663 20,300 357 387 -1344
2019-02-14 03:43:08 GMT 49.052307 9.126188 20,350 357 388 -1344
2019-02-14 03:43:05 GMT 49.045853 9.126822 20,425 357 388 -1344
2019-02-14 03:43:02 GMT 49.040501 9.127398 20,500 357 389 -1536
2019-02-14 03:42:57 GMT 49.031479 9.128230 20,625 357 390 -1664
2019-02-14 03:42:53 GMT 49.023560 9.129005 20,750 357 391 -1664
2019-02-14 03:42:50 GMT 49.019257 9.129427 20,950 357 392 -1664
2019-02-14 03:42:47 GMT 49.012756 9.130061 20,925 357 392 -1664
2019-02-14 03:42:44 GMT 49.007309 9.130578 20,950 357 392 -1664
2019-02-14 03:42:41 GMT 49.003677 9.130940 21,025 357 392 -1664
2019-02-14 03:42:37 GMT 48.996048 9.131681 21,175 357 393 -1664
2019-02-14 03:42:34 GMT 48.991699 9.132104 21,250 357 393 -1664
2019-02-14 03:42:31 GMT 48.985153 9.132737 21,375 357 393 -1664
2019-02-14 03:42:28 GMT 48.980072 9.133230 21,400 357 393 -1664
2019-02-14 03:42:25 GMT 48.974991 9.133723 21,500 357 394 -1664
2019-02-14 03:42:22 GMT 48.969177 9.134287 21,625 357 394 -1664
2019-02-14 03:42:19 GMT 48.962994 9.134915 21,700 357 394 -1664
2019-02-14 03:42:15 GMT 48.956085 9.135625 21,800 357 394 -1664
2019-02-14 03:42:12 GMT 48.949165 9.136288 21,900 357 395 -1664
2019-02-14 03:42:09 GMT 48.945877 9.136611 21,925 357 395 -1664
2019-02-14 03:42:06 GMT 48.939671 9.137228 22,100 357 395 -1728
2019-02-14 03:42:02 GMT 48.932362 9.138023 22,150 357 395 -1664
2019-02-14 03:41:59 GMT 48.925415 9.138653 22,275 357 395 -1664
2019-02-14 03:41:56 GMT 48.921066 9.139076 22,400 357 395 -1664
2019-02-14 03:41:53 GMT 48.915207 9.139639 22,450 357 395 -1728
2019-02-14 03:41:49 GMT 48.908993 9.140191 22,525 357 396 -1664
2019-02-14 03:41:46 GMT 48.903488 9.140695 22,650 357 397 -1728
2019-02-14 03:41:43 GMT 48.897259 9.141348 22,725 357 397 -1792
2019-02-14 03:41:40 GMT 48.892139 9.141781 22,875 357 398 -1856
2019-02-14 03:41:37 GMT 48.885910 9.142386 22,900 357 398 -1856
2019-02-14 03:41:34 GMT 48.873753 9.143588 23,825 357 399 -1856
2019-02-14 03:41:31 GMT 48.873753 9.143588 23,100 357 399 -1856
2019-02-14 03:41:25 GMT 48.864532 9.144428 23,250 357 400 -1856
2019-02-14 03:41:22 GMT 48.858948 9.144962 23,325 357 401 -1856
2019-02-14 03:41:19 GMT 48.848969 9.145977 23,475 357 402 -1856
2019-02-14 03:41:16 GMT 48.848969 9.145977 23,550 357 402 -1856
2019-02-14 03:41:13 GMT 48.841164 9.146696 23,775 357 403 -1856
2019-02-14 03:41:10 GMT 48.838184 9.146986 23,800 357 404 -1856
2019-02-14 03:41:07 GMT 48.829990 9.147781 25,200 357 410 -1856
2019-02-14 03:41:04 GMT 48.824734 9.148287 23,925 357 404 -1856
2019-02-14 03:41:01 GMT 48.819122 9.148865 24,050 357 405 -1856
2019-02-14 03:40:58 GMT 48.814636 9.149287 24,100 357 405 -1856
2019-02-14 03:40:55 GMT 48.807175 9.149992 24,200 357 406 -1792
2019-02-14 03:40:52 GMT 48.803421 9.150414 24,275 357 407 -1792
2019-02-14 03:40:49 GMT 48.798157 9.150907 24,350 357 407 -1792
2019-02-14 03:40:46 GMT 48.791382 9.151541 24,475 357 408 -1792
2019-02-14 03:40:43 GMT 48.779297 9.152668 24,600 357 409 -1792
2019-02-14 03:40:40 GMT 48.779297 9.152668 24,675 357 409 -1792
2019-02-14 03:40:37 GMT 48.775543 9.153090 24,825 357 410 -1856
2019-02-14 03:40:34 GMT 48.769100 9.153707 24,850 357 410 -1856
2019-02-14 03:40:31 GMT 48.763794 9.154213 25,050 357 411 -1856
2019-02-14 03:40:28 GMT 48.756996 9.154864 25,050 357 411 -1856
2019-02-14 03:40:25 GMT 48.753181 9.155225 25,175 357 411 -1856
2019-02-14 03:40:22 GMT 48.747875 9.155731 25,200 357 411 -1856
2019-02-14 03:40:19 GMT 48.738750 9.156599 25,275 357 410 -1856
2019-02-14 03:40:16 GMT 48.735352 9.156893 25,350 357 410 -1856
2019-02-14 03:40:13 GMT 48.729671 9.157466 25,575 357 409 -1856
2019-02-14 03:40:10 GMT 48.723999 9.158020 25,675 357 407 -1920
2019-02-14 03:40:07 GMT 48.717957 9.158583 25,800 357 408 -1920
2019-02-14 03:40:04 GMT 48.705559 9.159779 25,975 357 406 -1920
2019-02-14 03:40:01 GMT 48.705559 9.159779 25,975 357 405 -1856
2019-02-14 03:39:58 GMT 48.701836 9.160140 26,350 357 401 -1920
2019-02-14 03:39:55 GMT 48.694386 9.160863 26,125 357 403 -1856
2019-02-14 03:39:52 GMT 48.690262 9.161260 26,275 357 402 -1856
2019-02-14 03:39:49 GMT 48.686192 9.161658 26,350 357 401 -1856
2019-02-14 03:39:46 GMT 48.680279 9.162236 26,350 357 400 -1856
2019-02-14 03:39:42 GMT 48.664734 9.163682 26,575 357 400 -1856
2019-02-14 03:39:38 GMT 48.664734 9.163682 26,625 357 400 -1856
2019-02-14 03:39:35 GMT 48.658073 9.164332 26,775 357 401 -1920
2019-02-14 03:39:32 GMT 48.651417 9.164983 26,825 357 401 -1856
2019-02-14 03:39:28 GMT 48.644394 9.165626 26,925 357 401 -1856
2019-02-14 03:39:25 GMT 48.638443 9.166189 27,075 357 401 -1920
2019-02-14 03:39:22 GMT 48.634735 9.166541 27,175 357 401 -1984
2019-02-14 03:39:19 GMT 48.629562 9.167034 27,225 357 400 -1920
2019-02-14 03:39:16 GMT 48.623657 9.167598 27,300 357 400 -1792
2019-02-14 03:39:13 GMT 48.618832 9.168091 27,425 357 401 -1792
2019-02-14 03:39:10 GMT 48.611801 9.168725 27,550 357 401 -1856
2019-02-14 03:39:07 GMT 48.605896 9.169288 27,625 357 401 -1920
2019-02-14 03:39:04 GMT 48.600723 9.169781 27,675 357 401 -1856
2019-02-14 03:39:01 GMT 48.595882 9.170259 27,800 357 402 -1792
2019-02-14 03:38:57 GMT 48.588089 9.170978 27,950 357 402 -2240
2019-02-14 03:38:54 GMT 48.582520 9.171488 27,950 357 402 -2240
2019-02-14 03:38:51 GMT 48.575455 9.172175 28,175 357 403 -2304
2019-02-14 03:38:48 GMT 48.566528 9.173021 28,325 357 403 -2304
2019-02-14 03:38:45 GMT 48.566528 9.173021 28,550 357 404 -2368
2019-02-14 03:38:42 GMT 48.559067 9.173725 28,500 357 404 -2368
2019-02-14 03:38:38 GMT 48.553116 9.174288 28,625 357 404 -2368
2019-02-14 03:38:35 GMT 48.547897 9.174781 28,800 357 405 -2368
2019-02-14 03:38:31 GMT 48.539658 9.175556 28,975 357 405 -2368
2019-02-14 03:38:27 GMT 48.531418 9.176331 29,025 357 405 -2304
2019-02-14 03:38:24 GMT 48.521667 9.177246 29,300 357 406 -2304
2019-02-14 03:38:21 GMT 48.521667 9.177246 29,375 357 406 -2304
2019-02-14 03:38:18 GMT 48.513809 9.177993 29,475 357 406 -2304
2019-02-14 03:38:15 GMT 48.510040 9.178354 29,525 357 407 -2304
2019-02-14 03:38:12 GMT 48.502899 9.179007 29,625 357 407 -2304
2019-02-14 03:38:09 GMT 48.497635 9.179500 29,825 357 407 -2304
2019-02-14 03:38:06 GMT 48.492767 9.180017 29,925 357 408 -2304
2019-02-14 03:38:03 GMT 48.484863 9.180697 30,200 358 409 -2368
2019-02-14 03:38:00 GMT 48.482201 9.180956 30,300 357 409 -2304
2019-02-14 03:37:57 GMT 48.469757 9.182105 30,325 357 409 -2304
2019-02-14 03:37:54 GMT 48.469757 9.182105 30,375 357 409 -2304
2019-02-14 03:37:51 GMT 48.462982 9.182739 30,450 357 409 -2304
2019-02-14 03:37:48 GMT 48.459183 9.183091 30,600 357 410 -2304
2019-02-14 03:37:45 GMT 48.453873 9.183584 30,700 357 410 -2304
2019-02-14 03:37:42 GMT 48.441788 9.184782 30,850 357 410 -2304
2019-02-14 03:37:39 GMT 48.441788 9.184782 31,375 359 408 -2368
2019-02-14 03:37:36 GMT 48.435322 9.185438 31,100 357 410 -2368
2019-02-14 03:37:33 GMT 48.430805 9.185871 31,150 357 409 -2368
2019-02-14 03:37:30 GMT 48.425125 9.186472 31,325 357 409 -2368
2019-02-14 03:37:26 GMT 48.417957 9.187100 33,100 4 407 -2048
2019-02-14 03:37:23 GMT 48.403976 9.187810 31,700 359 408 -2368
2019-02-14 03:37:20 GMT 48.403976 9.187810 31,775 0 408 -2432
2019-02-14 03:37:17 GMT 48.400223 9.187951 31,900 0 407 -2432
2019-02-14 03:37:14 GMT 48.394226 9.187951 32,125 2 404 -2112
2019-02-14 03:37:11 GMT 48.389694 9.187880 32,100 2 405 -2176
2019-02-14 03:37:08 GMT 48.384861 9.187751 32,225 1 405 -2240
2019-02-14 03:37:05 GMT 48.376621 9.187317 32,400 3 404 -2048
2019-02-14 03:37:02 GMT 48.371796 9.186965 32,475 3 403 -2048
2019-02-14 03:36:59 GMT 48.366577 9.186401 32,525 3 403 -2048
2019-02-14 03:36:56 GMT 48.360626 9.185768 32,650 4 405 -2048
2019-02-14 03:36:53 GMT 48.355766 9.185293 32,800 4 405 -2048
2019-02-14 03:36:50 GMT 48.351295 9.184787 32,950 4 406 -2048
2019-02-14 03:36:47 GMT 48.344547 9.184064 34,025 4 406 -2048
2019-02-14 03:36:44 GMT 48.339706 9.183584 33,000 4 406 -2048
2019-02-14 03:36:41 GMT 48.331837 9.182763 33,275 4 407 -2048
2019-02-14 03:36:38 GMT 48.328445 9.182387 33,275 4 407 -2048
2019-02-14 03:36:35 GMT 48.322060 9.181679 33,375 3 407 -2048
2019-02-14 03:36:32 GMT 48.315674 9.181049 33,500 3 408 -1984
2019-02-14 03:36:29 GMT 48.310051 9.180450 33,650 3 408 -1984
2019-02-14 03:36:26 GMT 48.305534 9.179944 33,700 3 408 -1984
2019-02-14 03:36:23 GMT 48.299103 9.179288 33,775 3 409 -1984
2019-02-14 03:36:20 GMT 48.287380 9.178138 34,000 4 411 -1984
2019-02-14 03:36:17 GMT 48.287380 9.178138 34,150 4 411 -1984
2019-02-14 03:36:14 GMT 48.282486 9.177598 34,100 4 412 -1984
2019-02-14 03:36:11 GMT 48.274887 9.176824 34,200 4 412 -1984
2019-02-14 03:36:08 GMT 48.265408 9.175825 34,400 4 413 -1984
2019-02-14 03:36:05 GMT 48.265408 9.175825 34,475 4 414 -1984
2019-02-14 03:36:02 GMT 48.259689 9.175204 34,525 4 414 -1984
2019-02-14 03:35:59 GMT 48.253956 9.174596 34,625 4 414 -1984
2019-02-14 03:35:56 GMT 48.245575 9.173656 34,775 3 416 -2048
2019-02-14 03:35:53 GMT 48.242111 9.173302 34,900 3 416 -2048
2019-02-14 03:35:50 GMT 48.233688 9.172457 34,975 3 415 -2048
2019-02-14 03:35:47 GMT 48.229111 9.171964 35,025 3 415 -2048
2019-02-14 03:35:44 GMT 48.225266 9.171612 35,150 3 415 -1984
2019-02-14 03:35:41 GMT 48.219505 9.170982 35,300 3 416 -2048
2019-02-14 03:35:38 GMT 48.214508 9.170485 35,850 3 412 -2048
2019-02-14 03:35:35 GMT 48.208420 9.169851 35,450 4 415 -2048
2019-02-14 03:35:32 GMT 48.195374 9.168513 35,600 4 415 -2048
2019-02-14 03:35:29 GMT 48.195374 9.168513 35,700 4 414 -2048
2019-02-14 03:35:26 GMT 48.190411 9.168019 35,800 3 413 -2112
2019-02-14 03:35:23 GMT 48.183929 9.167316 35,950 3 412 -2048
2019-02-14 03:35:20 GMT 48.172909 9.166212 36,050 3 411 -2048
2019-02-14 03:35:17 GMT 48.172909 9.166212 36,075 3 411 -2048
2019-02-14 03:35:14 GMT 48.167999 9.165696 36,225 3 410 -2048
2019-02-14 03:35:11 GMT 48.156986 9.164570 36,350 3 409 -2048
2019-02-14 03:35:08 GMT 48.156986 9.164570 36,400 3 409 -2048
2019-02-14 03:35:05 GMT 48.149826 9.163834 36,500 3 408 -2048
2019-02-14 03:35:01 GMT 48.137741 9.162598 36,700 3 408 -1984
2019-02-14 03:34:58 GMT 48.137741 9.162598 36,750 4 409 -1984
2019-02-14 03:34:55 GMT 48.132874 9.162105 36,900 4 409 -1984
2019-02-14 03:34:52 GMT 48.126480 9.161430 36,975 4 409 -1920
2019-02-14 03:34:49 GMT 48.115906 9.160263 37,100 4 409 -1984
2019-02-14 03:34:43 GMT 48.109505 9.159569 37,200 4 409 -1984
2019-02-14 03:34:40 GMT 48.103867 9.159027 37,275 4 410 -1984
2019-02-14 03:34:37 GMT 48.097046 9.158272 37,600 4 411 -1984
2019-02-14 03:34:34 GMT 48.091393 9.157668 37,575 4 411 -1984
2019-02-14 03:34:31 GMT 48.085693 9.157104 37,775 4 411 -1664
2019-02-14 03:34:28 GMT 48.078873 9.156349 37,825 4 412 -1344
2019-02-14 03:34:25 GMT 48.075474 9.156048 37,925 4 412 -1216
2019-02-14 03:34:22 GMT 48.069050 9.155344 37,950 4 413 -1024
2019-02-14 03:34:19 GMT 48.058365 9.154221 38,025 4 414 -896
2019-02-14 03:34:16 GMT 48.058365 9.154221 38,050 4 414 -896
2019-02-14 03:34:12 GMT 48.049210 9.153328 38,150 4 415 -832
2019-02-14 03:34:09 GMT 48.042702 9.152597 38,200 3 416 -832
2019-02-14 03:34:06 GMT 48.040009 9.152367 38,225 3 417 -832
2019-02-14 03:34:03 GMT 48.032364 9.151543 38,250 4 417 -832
2019-02-14 03:34:00 GMT 48.028130 9.151118 38,275 4 418 -832
2019-02-14 03:33:57 GMT 48.021561 9.150375 38,375 4 420 -832
2019-02-14 03:33:54 GMT 48.015793 9.149780 38,400 4 420 -832
2019-02-14 03:33:51 GMT 48.009975 9.149217 38,425 3 420 -896
2019-02-14 03:33:48 GMT 48.002243 9.148384 38,500 3 421 -896
2019-02-14 03:33:45 GMT 47.999130 9.148041 38,525 3 409 -896
2019-02-14 03:33:42 GMT 47.992905 9.147423 38,600 3 420 -960
2019-02-14 03:33:39 GMT 47.984791 9.146611 38,650 3 421 -896
2019-02-14 03:33:36 GMT 47.979343 9.146048 38,725 4 420 -896
2019-02-14 03:33:33 GMT 47.975876 9.145706 38,750 4 420 -896
2019-02-14 03:33:30 GMT 47.968918 9.144921 38,800 3 419 -896
2019-02-14 03:33:27 GMT 47.963516 9.144402 38,875 3 417 -896
2019-02-14 03:33:24 GMT 47.957336 9.143715 38,900 3 417 -896
2019-02-14 03:33:21 GMT 47.951599 9.143160 38,925 3 416 -896
2019-02-14 03:33:18 GMT 47.946198 9.142597 39,800 4 400 0
2019-02-14 03:33:15 GMT 47.933578 9.141243 39,050 4 414 -896
2019-02-14 03:33:12 GMT 47.933578 9.141243 39,100 3 412 -896
2019-02-14 03:33:09 GMT 47.929047 9.140831 39,175 3 411 -896
2019-02-14 03:33:06 GMT 47.923737 9.140282 39,200 3 410 -896
2019-02-14 03:33:03 GMT 47.919159 9.139801 39,225 3 409 -896
2019-02-14 03:33:00 GMT 47.911983 9.139076 39,300 3 408 -960
2019-02-14 03:32:57 GMT 47.906723 9.138583 39,425 3 406 -960
2019-02-14 03:32:54 GMT 47.900669 9.137949 39,400 3 406 -960
2019-02-14 03:32:51 GMT 47.894665 9.137385 39,425 3 405 -960
2019-02-14 03:32:48 GMT 47.889816 9.136848 39,475 3 405 -960
2019-02-14 03:32:45 GMT 47.882355 9.136093 39,550 3 404 -960
2019-02-14 03:32:42 GMT 47.878979 9.135766 39,625 3 403 -960
2019-02-14 03:32:39 GMT 47.873016 9.135132 39,625 3 402 -960
2019-02-14 03:32:36 GMT 47.865616 9.134428 39,700 3 400 -960
2019-02-14 03:32:33 GMT 47.855980 9.133442 39,750 3 401 -960
2019-02-14 03:32:30 GMT 47.855980 9.133442 39,775 3 400 -960
2019-02-14 03:32:27 GMT 47.850811 9.132949 39,825 4 400 -1024
2019-02-14 03:32:24 GMT 47.844543 9.132248 39,900 4 399 -768
2019-02-14 03:32:21 GMT 47.833122 9.131047 39,950 4 399 -448
2019-02-14 03:32:18 GMT 47.833122 9.131047 39,975 4 399 -256
2019-02-14 03:32:15 GMT 47.827209 9.130484 39,975 4 399 -64
2019-02-14 03:32:12 GMT 47.821701 9.129913 40,000 4 399 -64
2019-02-14 03:32:09 GMT 47.817249 9.129427 40,000 4 399 0
2019-02-14 03:32:06 GMT 47.811756 9.128864 40,000 4 399 0
2019-02-14 03:32:03 GMT 47.806587 9.128371 40,000 4 400 0
2019-02-14 03:32:00 GMT 47.794064 9.127033 40,000 4 400 0
2019-02-14 03:31:57 GMT 47.790340 9.126681 40,000 4 400 0
2019-02-14 03:31:54 GMT 47.790340 9.126681 40,000 3 401 0
2019-02-14 03:31:51 GMT 47.784428 9.126117 40,000 4 400 0
2019-02-14 03:31:48 GMT 47.778168 9.125450 40,000 4 400 0
2019-02-14 03:31:45 GMT 47.772995 9.124901 40,000 4 400 0
2019-02-14 03:31:42 GMT 47.768181 9.124427 40,000 4 400 0
2019-02-14 03:31:39 GMT 47.762272 9.123793 40,000 3 401 0
2019-02-14 03:31:36 GMT 47.755966 9.123184 40,000 3 401 0
2019-02-14 03:31:33 GMT 47.750793 9.122635 40,000 3 401 0
2019-02-14 03:31:30 GMT 47.744488 9.121962 40,000 3 401 0
2019-02-14 03:31:27 GMT 47.738575 9.121329 40,000 3 401 0
2019-02-14 03:31:24 GMT 47.734497 9.120918 40,000 3 401 0
2019-02-14 03:31:21 GMT 47.730057 9.120506 40,000 3 402 0
2019-02-14 03:31:18 GMT 47.722641 9.119751 40,000 3 402 0
2019-02-14 03:31:15 GMT 47.717812 9.119216 40,000 3 402 0
2019-02-14 03:31:12 GMT 47.712250 9.118652 40,000 3 402 0
2019-02-14 03:31:09 GMT 47.705940 9.118019 40,000 3 402 0
2019-02-14 03:31:06 GMT 47.700031 9.117385 40,000 3 402 0
2019-02-14 03:31:03 GMT 47.694073 9.116821 40,000 3 402 0
2019-02-14 03:31:00 GMT 47.688492 9.116249 40,000 3 402 0
2019-02-14 03:30:57 GMT 47.683689 9.115765 40,000 3 402 0
2019-02-14 03:30:54 GMT 47.676289 9.114990 40,000 3 402 0
2019-02-14 03:30:51 GMT 47.671463 9.114532 40,000 3 402 0
2019-02-14 03:30:48 GMT 47.667755 9.114120 40,000 3 402 0
2019-02-14 03:30:45 GMT 47.661438 9.113511 40,000 3 402 0
2019-02-14 03:30:42 GMT 47.656631 9.113022 40,000 3 402 0
2019-02-14 03:30:39 GMT 47.651058 9.112455 40,000 3 402 0
2019-02-14 03:30:36 GMT 47.644352 9.111751 40,000 3 402 0
2019-02-14 03:30:33 GMT 47.639557 9.111237 40,000 3 402 0
2019-02-14 03:30:30 GMT 47.633972 9.110694 40,000 3 402 0
2019-02-14 03:30:27 GMT 47.627316 9.109990 40,000 3 402 0
2019-02-14 03:30:24 GMT 47.623592 9.109567 40,000 3 402 0
2019-02-14 03:30:21 GMT 47.618042 9.109039 40,000 3 402 0
2019-02-14 03:30:18 GMT 47.610973 9.108300 40,000 3 402 0
2019-02-14 03:30:15 GMT 47.603573 9.107525 40,000 3 402 0
2019-02-14 03:30:12 GMT 47.600594 9.107243 40,000 3 402 0
2019-02-14 03:30:09 GMT 47.596527 9.106773 40,000 3 402 0
2019-02-14 03:30:06 GMT 47.589844 9.106155 40,000 3 402 0
2019-02-14 03:30:03 GMT 47.583511 9.105483 40,000 3 402 0
2019-02-14 03:30:00 GMT 47.578674 9.104988 40,000 3 402 0
2019-02-14 03:29:57 GMT 47.573128 9.104426 40,000 3 402 0
2019-02-14 03:29:54 GMT 47.567551 9.103889 40,000 3 402 0
2019-02-14 03:29:51 GMT 47.562332 9.103340 40,000 3 403 0
2019-02-14 03:29:48 GMT 47.556046 9.102736 40,000 3 402 0
2019-02-14 03:29:45 GMT 47.549339 9.102032 40,000 3 403 0
2019-02-14 03:29:42 GMT 47.542282 9.101349 40,000 3 403 0
2019-02-14 03:29:39 GMT 47.539307 9.101006 40,000 3 403 0
2019-02-14 03:29:36 GMT 47.534073 9.100553 40,000 3 407 0
2019-02-14 03:29:33 GMT 47.528915 9.099976 40,000 3 403 0
2019-02-14 03:29:30 GMT 47.522186 9.099289 40,000 3 403 0
2019-02-14 03:29:27 GMT 47.516235 9.098671 40,000 3 403 0
2019-02-14 03:29:24 GMT 47.511063 9.098122 40,000 3 403 0
2019-02-14 03:29:21 GMT 47.505440 9.097595 40,000 3 403 0
2019-02-14 03:29:18 GMT 47.500626 9.097092 40,000 3 403 0
2019-02-14 03:29:15 GMT 47.494270 9.096468 40,000 3 404 0
2019-02-14 03:29:12 GMT 47.489456 9.095993 40,000 3 404 0
2019-02-14 03:29:09 GMT 47.483841 9.095412 40,000 3 404 0
2019-02-14 03:29:06 GMT 47.476395 9.094637 40,000 3 404 0
2019-02-14 03:29:03 GMT 47.472290 9.094208 40,000 3 404 0
2019-02-14 03:29:00 GMT 47.467407 9.093722 40,000 3 405 0
2019-02-14 03:28:57 GMT 47.461449 9.093088 40,000 3 405 0
2019-02-14 03:28:54 GMT 47.454346 9.092354 40,000 3 405 0
2019-02-14 03:28:50 GMT 47.448349 9.091736 40,000 3 405 0
2019-02-14 03:28:47 GMT 47.443130 9.091255 40,000 3 405 0
2019-02-14 03:28:44 GMT 47.436775 9.090623 40,000 3 405 0
2019-02-14 03:28:41 GMT 47.431137 9.090019 40,000 3 406 0
2019-02-14 03:28:38 GMT 47.425510 9.089496 40,000 3 406 0
2019-02-14 03:28:35 GMT 47.419506 9.088862 40,000 3 406 0
2019-02-14 03:28:32 GMT 47.408287 9.087736 40,000 3 406 0
2019-02-14 03:28:29 GMT 47.404129 9.087341 40,000 3 406 0
2019-02-14 03:28:23 GMT 47.397766 9.086679 40,000 3 407 0
2019-02-14 03:28:20 GMT 47.392914 9.086174 40,000 3 407 0
2019-02-14 03:28:17 GMT 47.386501 9.085553 40,000 3 407 0
2019-02-14 03:28:14 GMT 47.381607 9.085007 40,000 3 407 0
2019-02-14 03:28:11 GMT 47.373745 9.084214 40,000 3 407 0
2019-02-14 03:28:08 GMT 47.367371 9.083565 40,000 3 407 0
2019-02-14 03:28:05 GMT 47.363571 9.083221 40,000 3 407 0
2019-02-14 03:28:02 GMT 47.357964 9.082665 40,000 3 407 0
2019-02-14 03:27:59 GMT 47.351166 9.081961 40,000 3 407 0
2019-02-14 03:27:56 GMT 47.346268 9.081436 40,000 3 407 0
2019-02-14 03:27:53 GMT 47.340271 9.080818 40,000 3 408 0
2019-02-14 03:27:50 GMT 47.335739 9.080406 40,000 3 408 0
2019-02-14 03:27:47 GMT 47.329742 9.079788 40,000 3 408 0
2019-02-14 03:27:44 GMT 47.323700 9.079170 40,000 3 408 -64
2019-02-14 03:27:41 GMT 47.318813 9.078651 40,000 3 408 -64
2019-02-14 03:27:38 GMT 47.313171 9.078140 40,000 3 408 0
2019-02-14 03:27:35 GMT 47.306011 9.077383 40,000 3 408 0
2019-02-14 03:27:32 GMT 47.301495 9.076961 40,000 3 408 0
2019-02-14 03:27:29 GMT 47.294357 9.076218 40,000 3 408 0
2019-02-14 03:27:26 GMT 47.289825 9.075806 40,000 3 408 0
2019-02-14 03:27:22 GMT 47.282318 9.075050 40,000 4 409 0
2019-02-14 03:27:19 GMT 47.277786 9.074570 40,000 3 408 0
2019-02-14 03:27:16 GMT 47.266479 9.073471 40,000 3 408 0
2019-02-14 03:27:10 GMT 47.259319 9.072735 40,000 3 409 0
2019-02-14 03:27:07 GMT 47.254803 9.072242 40,000 3 409 0
2019-02-14 03:27:04 GMT 47.246841 9.071480 40,000 3 409 -64
2019-02-14 03:27:01 GMT 47.242310 9.070999 40,000 3 409 0
2019-02-14 03:26:58 GMT 47.236649 9.070411 40,000 3 409 0
2019-02-14 03:26:55 GMT 47.229851 9.069707 40,000 3 409 0
2019-02-14 03:26:52 GMT 47.224182 9.069145 40,000 3 409 0
2019-02-14 03:26:49 GMT 47.220428 9.068802 40,000 3 409 0
2019-02-14 03:26:46 GMT 47.212875 9.068047 40,000 3 409 0
2019-02-14 03:26:43 GMT 47.209461 9.067665 40,000 3 409 0
2019-02-14 03:26:40 GMT 47.202667 9.067031 40,000 3 409 0
2019-02-14 03:26:37 GMT 47.198151 9.066538 40,000 3 409 0
2019-02-14 03:26:34 GMT 47.191727 9.065918 40,000 3 409 0
2019-02-14 03:26:31 GMT 47.185684 9.065300 40,000 3 409 0
2019-02-14 03:26:28 GMT 47.180786 9.064777 40,000 3 409 0
2019-02-14 03:26:25 GMT 47.173988 9.064143 40,000 3 409 0
2019-02-14 03:26:22 GMT 47.170174 9.063721 40,000 3 409 0
2019-02-14 03:26:19 GMT 47.163757 9.063103 40,000 4 410 0
2019-02-14 03:26:16 GMT 47.158115 9.062523 40,000 3 409 0
2019-02-14 03:26:13 GMT 47.152061 9.061890 40,000 3 409 0
2019-02-14 03:26:10 GMT 47.147919 9.061523 40,000 3 409 0
2019-02-14 03:26:07 GMT 47.140705 9.060763 40,000 3 409 0
2019-02-14 03:26:04 GMT 47.135445 9.060270 40,000 3 409 0
2019-02-14 03:26:01 GMT 47.128601 9.059566 40,000 3 409 0
2019-02-14 03:25:58 GMT 47.123341 9.059002 40,000 3 409 0
2019-02-14 03:25:55 GMT 47.118778 9.058580 40,000 3 409 0
2019-02-14 03:25:52 GMT 47.111980 9.057875 40,000 3 409 0
2019-02-14 03:25:49 GMT 47.108212 9.057523 40,000 3 409 0
2019-02-14 03:25:46 GMT 47.100266 9.056717 40,000 3 409 0
2019-02-14 03:25:43 GMT 47.096107 9.056326 40,000 3 409 0
2019-02-14 03:25:40 GMT 47.083649 9.055069 40,000 3 409 0
2019-02-14 03:25:37 GMT 47.083649 9.055069 40,000 3 409 0
2019-02-14 03:25:34 GMT 47.079117 9.054657 40,000 3 408 0
2019-02-14 03:25:31 GMT 47.071945 9.053932 40,000 3 408 0
2019-02-14 03:25:27 GMT 47.065521 9.053284 40,000 3 408 0
2019-02-14 03:25:24 GMT 47.060635 9.052805 40,000 3 408 0
2019-02-14 03:25:21 GMT 47.054630 9.052171 40,000 3 407 0
2019-02-14 03:25:18 GMT 47.049370 9.051678 40,000 3 407 0
2019-02-14 03:25:15 GMT 47.043686 9.051086 40,000 3 407 0
2019-02-14 03:25:12 GMT 47.038803 9.050622 40,000 3 407 0
2019-02-14 03:25:09 GMT 47.031307 9.049847 40,000 3 407 0
2019-02-14 03:25:06 GMT 47.026428 9.049370 40,000 3 406 0
2019-02-14 03:25:03 GMT 47.020786 9.048791 40,000 3 406 0
2019-02-14 03:25:00 GMT 47.014389 9.048203 40,000 3 406 0
2019-02-14 03:24:57 GMT 47.003513 9.047100 40,000 3 406 0
2019-02-14 03:24:54 GMT 47.003513 9.047100 40,000 3 406 0
2019-02-14 03:24:51 GMT 46.997910 9.046555 40,000 3 406 0
2019-02-14 03:24:48 GMT 46.992294 9.045974 40,000 3 406 0
2019-02-14 03:24:45 GMT 46.987038 9.045481 40,000 3 406 0
2019-02-14 03:24:42 GMT 46.981773 9.044917 40,000 3 406 0
2019-02-14 03:24:39 GMT 46.975819 9.044354 40,000 3 406 0
2019-02-14 03:24:36 GMT 46.969437 9.043671 40,000 3 406 0
2019-02-14 03:24:33 GMT 46.957802 9.042523 40,000 3 406 0
2019-02-14 03:24:30 GMT 46.957802 9.042523 40,000 3 406 0
2019-02-14 03:24:27 GMT 46.953285 9.042030 40,000 3 406 0
2019-02-14 03:24:24 GMT 46.947647 9.041473 40,000 3 406 0
2019-02-14 03:24:21 GMT 46.943161 9.041061 40,000 3 406 0
2019-02-14 03:24:18 GMT 46.935654 9.040237 40,000 3 406 0
2019-02-14 03:24:15 GMT 46.931168 9.039825 40,000 3 406 0
2019-02-14 03:24:12 GMT 46.924393 9.039139 40,000 3 406 0
2019-02-14 03:24:09 GMT 46.918789 9.038579 40,000 3 407 0
2019-02-14 03:24:06 GMT 46.908646 9.037560 40,000 3 406 0
2019-02-14 03:24:03 GMT 46.908646 9.037560 40,000 3 406 0
2019-02-14 03:24:00 GMT 46.901138 9.036804 40,000 3 406 0
2019-02-14 03:23:57 GMT 46.897385 9.036461 40,000 3 406 0
2019-02-14 03:23:54 GMT 46.892166 9.035912 40,000 3 406 0
2019-02-14 03:23:51 GMT 46.885391 9.035225 40,000 3 406 0
2019-02-14 03:23:48 GMT 46.879036 9.034635 40,000 3 406 0
2019-02-14 03:23:45 GMT 46.873398 9.034058 40,000 3 406 0
2019-02-14 03:23:42 GMT 46.868912 9.033646 40,000 3 406 0
2019-02-14 03:23:39 GMT 46.863647 9.033106 40,000 3 407 0
2019-02-14 03:23:36 GMT 46.859116 9.032637 40,000 3 406 0
2019-02-14 03:23:33 GMT 46.851990 9.031929 40,000 3 407 0
2019-02-14 03:23:30 GMT 46.846344 9.031365 40,000 3 407 0
2019-02-14 03:23:27 GMT 46.840347 9.030829 40,000 3 407 0
2019-02-14 03:23:24 GMT 46.834351 9.030226 40,000 3 405 0
2019-02-14 03:23:21 GMT 46.829456 9.029732 40,000 3 407 0
2019-02-14 03:23:18 GMT 46.823090 9.029087 40,000 3 407 0
2019-02-14 03:23:15 GMT 46.814419 9.028221 40,000 3 406 0
2019-02-14 03:23:12 GMT 46.806927 9.027466 40,000 3 406 0
2019-02-14 03:23:06 GMT 46.802078 9.027010 40,000 3 406 0
2019-02-14 03:23:03 GMT 46.794216 9.026230 40,000 3 405 0
2019-02-14 03:23:00 GMT 46.790085 9.025804 40,000 3 405 0
2019-02-14 03:22:57 GMT 46.782951 9.025063 40,000 3 405 64
2019-02-14 03:22:54 GMT 46.778481 9.024651 40,000 3 405 0
2019-02-14 03:22:51 GMT 46.773220 9.024101 40,000 3 405 0
2019-02-14 03:22:48 GMT 46.768005 9.023621 40,000 3 405 0
2019-02-14 03:22:45 GMT 46.761257 9.022934 40,000 3 405 0
2019-02-14 03:22:42 GMT 46.756042 9.022453 40,000 3 405 0
2019-02-14 03:22:39 GMT 46.750782 9.021904 40,000 3 405 0
2019-02-14 03:22:36 GMT 46.744823 9.021286 40,000 3 405 0
2019-02-14 03:22:33 GMT 46.739227 9.020780 40,000 3 405 0
2019-02-14 03:22:30 GMT 46.735096 9.020325 40,000 3 405 0
2019-02-14 03:22:27 GMT 46.728745 9.019708 40,000 3 405 0
2019-02-14 03:22:24 GMT 46.722748 9.019105 40,000 3 405 0
2019-02-14 03:22:21 GMT 46.717529 9.018637 40,000 3 405 0
2019-02-14 03:22:18 GMT 46.710022 9.017900 40,000 3 405 0
2019-02-14 03:22:15 GMT 46.704071 9.017297 40,000 3 405 0
2019-02-14 03:22:12 GMT 46.698807 9.016761 40,000 3 404 0
2019-02-14 03:22:09 GMT 46.694733 9.016342 40,000 3 405 0
2019-02-14 03:22:06 GMT 46.689835 9.015890 40,000 3 404 0
2019-02-14 03:22:03 GMT 46.683514 9.015244 40,000 3 404 0
2019-02-14 03:22:00 GMT 46.670807 9.014008 40,000 3 404 0
2019-02-14 03:21:56 GMT 46.670807 9.014008 40,000 3 404 0
2019-02-14 03:21:53 GMT 46.664104 9.013321 40,000 3 404 0
2019-02-14 03:21:50 GMT 46.659210 9.012875 40,000 3 404 0
2019-02-14 03:21:47 GMT 46.653629 9.012291 40,000 3 404 0
2019-02-14 03:21:44 GMT 46.649158 9.011879 40,000 3 404 0
2019-02-14 03:21:41 GMT 46.642456 9.011192 40,000 3 403 0
2019-02-14 03:21:38 GMT 46.637241 9.010643 40,000 3 403 0
2019-02-14 03:21:35 GMT 46.629795 9.009956 40,000 3 403 0
2019-02-14 03:21:32 GMT 46.626434 9.009593 40,000 3 403 0
2019-02-14 03:21:29 GMT 46.620110 9.008995 40,000 3 403 0
2019-02-14 03:21:26 GMT 46.613800 9.008387 40,000 3 403 0
2019-02-14 03:21:23 GMT 46.610046 9.007985 40,000 3 403 0
2019-02-14 03:21:20 GMT 46.597069 9.006729 40,000 3 402 0
2019-02-14 03:21:17 GMT 46.597069 9.006729 40,000 3 402 0
2019-02-14 03:21:14 GMT 46.591461 9.006109 40,000 3 402 0
2019-02-14 03:21:11 GMT 46.586639 9.005630 40,000 3 402 0
2019-02-14 03:21:08 GMT 46.581070 9.005105 40,000 3 402 0
2019-02-14 03:21:05 GMT 46.569603 9.003983 40,000 3 401 0
2019-02-14 03:20:59 GMT 46.562897 9.003296 40,000 3 401 0
2019-02-14 03:20:56 GMT 46.558090 9.002827 40,000 3 401 0
2019-02-14 03:20:53 GMT 46.553310 9.002335 40,000 3 401 0
2019-02-14 03:20:50 GMT 46.547352 9.001785 40,000 3 401 0
2019-02-14 03:20:47 GMT 46.541840 9.001219 40,000 3 401 0
2019-02-14 03:20:43 GMT 46.534424 9.000482 40,000 3 400 0
2019-02-14 03:20:40 GMT 46.528870 8.999931 40,000 3 400 0
2019-02-14 03:20:37 GMT 46.524078 8.999477 40,000 3 400 0
2019-02-14 03:20:34 GMT 46.518536 8.998901 40,000 3 400 0
2019-02-14 03:20:31 GMT 46.511131 8.998215 40,000 3 398 0
2019-02-14 03:20:28 GMT 46.505585 8.997669 40,000 3 399 0
2019-02-14 03:20:25 GMT 46.501190 8.997200 40,000 3 399 0
2019-02-14 03:20:22 GMT 46.493443 8.996429 40,000 3 399 0
2019-02-14 03:20:18 GMT 46.482742 8.995391 40,000 3 399 0
2019-02-14 03:20:15 GMT 46.482742 8.995391 40,000 3 398 0
2019-02-14 03:20:12 GMT 46.478348 8.994989 40,000 3 398 0
2019-02-14 03:20:09 GMT 46.464386 8.993582 40,000 3 398 0
2019-02-14 03:20:06 GMT 46.464386 8.993582 40,000 3 398 0
2019-02-14 03:20:03 GMT 46.459213 8.993113 40,000 3 399 0
2019-02-14 03:20:00 GMT 46.453686 8.992584 40,000 3 399 0
2019-02-14 03:19:57 GMT 46.450008 8.992172 40,000 3 398 0
2019-02-14 03:19:54 GMT 46.437149 8.990970 40,000 3 399 0
2019-02-14 03:19:51 GMT 46.433441 8.990635 40,000 3 400 0
2019-02-14 03:19:48 GMT 46.433441 8.990635 40,000 3 399 0
2019-02-14 03:19:45 GMT 46.427582 8.990032 40,000 3 399 0
2019-02-14 03:19:42 GMT 46.421677 8.989496 40,000 3 399 0
2019-02-14 03:19:39 GMT 46.417610 8.989151 40,000 3 399 0
2019-02-14 03:19:36 GMT 46.410599 8.988424 40,000 3 399 0
2019-02-14 03:19:33 GMT 46.399174 8.987366 40,000 3 399 0
2019-02-14 03:19:30 GMT 46.399174 8.987366 40,000 3 399 0
2019-02-14 03:19:27 GMT 46.394753 8.986885 40,000 3 399 0
2019-02-14 03:19:24 GMT 46.389221 8.986347 40,000 3 400 0
2019-02-14 03:19:21 GMT 46.381851 8.985611 40,000 3 400 0
2019-02-14 03:19:18 GMT 46.378506 8.985306 40,000 4 400 0
2019-02-14 03:19:15 GMT 46.366333 8.984070 40,000 4 400 0
2019-02-14 03:19:12 GMT 46.366333 8.984070 40,000 4 400 0
2019-02-14 03:19:09 GMT 46.362671 8.983735 40,000 4 400 0
2019-02-14 03:19:06 GMT 46.356392 8.983109 40,000 4 400 0
2019-02-14 03:19:03 GMT 46.344566 8.981873 40,000 3 400 0
2019-02-14 03:19:00 GMT 46.344566 8.981873 40,000 3 400 0
2019-02-14 03:18:57 GMT 46.339401 8.981392 40,000 3 400 0
2019-02-14 03:18:54 GMT 46.328323 8.980293 40,000 3 400 0
2019-02-14 03:18:51 GMT 46.328323 8.980293 40,000 3 400 0
2019-02-14 03:18:48 GMT 46.322021 8.979715 40,000 3 400 0
2019-02-14 03:18:45 GMT 46.317242 8.979263 40,000 3 400 0
2019-02-14 03:18:42 GMT 46.311676 8.978711 40,000 3 400 0
2019-02-14 03:18:39 GMT 46.306114 8.978165 40,000 3 400 0
2019-02-14 03:18:33 GMT 46.293182 8.976902 40,000 3 400 0
2019-02-14 03:18:30 GMT 46.290253 8.976634 40,000 3 400 0
2019-02-14 03:18:27 GMT 46.283569 8.975964 40,000 3 401 0
2019-02-14 03:18:24 GMT 46.278046 8.975418 40,000 3 401 0
2019-02-14 03:18:21 GMT 46.271389 8.974800 40,000 3 401 0
2019-02-14 03:18:18 GMT 46.267319 8.974423 40,000 3 401 0
2019-02-14 03:18:15 GMT 46.262100 8.973887 40,000 3 401 0
2019-02-14 03:18:12 GMT 46.255463 8.973284 40,000 3 401 0
2019-02-14 03:18:09 GMT 46.250626 8.972809 40,000 3 401 0
2019-02-14 03:18:06 GMT 46.245804 8.972347 40,000 3 401 0
2019-02-14 03:18:03 GMT 46.238056 8.971573 40,000 3 402 0
2019-02-14 03:18:00 GMT 46.233589 8.971161 40,000 3 402 0
2019-02-14 03:17:57 GMT 46.226883 8.970474 40,000 3 402 0
2019-02-14 03:17:54 GMT 46.217995 8.969650 40,000 3 402 0
2019-02-14 03:17:51 GMT 46.212082 8.969032 40,000 3 402 0
2019-02-14 03:17:48 GMT 46.212082 8.969032 40,000 4 403 0
2019-02-14 03:17:45 GMT 46.204632 8.968346 40,000 3 402 0
2019-02-14 03:17:41 GMT 46.198334 8.967724 40,000 3 402 0
2019-02-14 03:17:38 GMT 46.193115 8.967188 40,000 3 402 0
2019-02-14 03:17:35 GMT 46.186802 8.966560 40,000 3 402 0
2019-02-14 03:17:32 GMT 46.176422 8.965530 40,000 3 402 0
2019-02-14 03:17:29 GMT 46.176422 8.965530 40,000 4 403 0
2019-02-14 03:17:26 GMT 46.170464 8.964981 40,000 4 403 64
2019-02-14 03:17:23 GMT 46.163013 8.964157 40,000 3 402 64
2019-02-14 03:17:20 GMT 46.161163 8.963973 40,000 3 403 64
2019-02-14 03:17:17 GMT 46.151890 8.963058 40,000 3 403 0
2019-02-14 03:17:14 GMT 46.148529 8.962767 40,000 3 403 0
2019-02-14 03:17:10 GMT 46.141068 8.962030 40,000 3 403 0
2019-02-14 03:17:07 GMT 46.135502 8.961479 40,000 3 403 0
2019-02-14 03:17:01 GMT 46.123215 8.960288 40,000 3 403 0
2019-02-14 03:16:58 GMT 46.119118 8.959900 40,000 3 403 0
2019-02-14 03:16:55 GMT 46.113903 8.959419 40,000 3 403 0
2019-02-14 03:16:52 GMT 46.107944 8.958801 40,000 3 403 0
2019-02-14 03:16:49 GMT 46.100540 8.958046 40,000 3 403 0
2019-02-14 03:16:46 GMT 46.096817 8.957703 40,000 3 403 0
2019-02-14 03:16:43 GMT 46.091995 8.957207 40,000 3 402 0
2019-02-14 03:16:40 GMT 46.083408 8.956329 40,000 3 402 0
2019-02-14 03:16:37 GMT 46.079685 8.955986 40,000 3 402 0
2019-02-14 03:16:34 GMT 46.073029 8.955299 40,000 3 402 0
2019-02-14 03:16:31 GMT 46.068924 8.954929 40,000 3 402 0
2019-02-14 03:16:28 GMT 46.062599 8.954269 40,000 3 402 0
2019-02-14 03:16:25 GMT 46.058876 8.953926 40,000 3 402 0
2019-02-14 03:16:22 GMT 46.047005 8.952759 40,000 3 402 0
2019-02-14 03:16:19 GMT 46.047005 8.952759 40,000 3 403 0
2019-02-14 03:16:16 GMT 46.041046 8.952209 40,000 3 403 0
2019-02-14 03:16:13 GMT 46.035461 8.951714 40,000 3 403 0
2019-02-14 03:16:10 GMT 46.028385 8.950974 40,000 4 403 0
2019-02-14 03:16:07 GMT 46.022827 8.950307 40,000 4 403 0
2019-02-14 03:16:04 GMT 46.017262 8.949669 40,000 15 407 -64
2019-02-14 03:16:01 GMT 46.012436 8.949034 40,000 5 403 0
2019-02-14 03:15:58 GMT 45.999058 8.946922 40,000 7 405 -128
2019-02-14 03:15:55 GMT 45.999058 8.946922 40,000 8 404 -128
2019-02-14 03:15:52 GMT 45.996140 8.946221 40,000 9 406 -128
2019-02-14 03:15:49 GMT 45.984673 8.943420 40,000 11 406 -128
2019-02-14 03:15:46 GMT 45.984673 8.943420 40,000 20 408 0
2019-02-14 03:15:43 GMT 45.980297 8.942047 40,000 20 408 0
2019-02-14 03:15:40 GMT 45.972988 8.939575 40,000 14 406 -64
2019-02-14 03:15:36 GMT 45.966110 8.936976 40,000 16 407 -64
2019-02-14 03:15:33 GMT 45.960342 8.934497 40,000 18 408 -128
2019-02-14 03:15:29 GMT 45.954575 8.931751 40,000 20 408 0
2019-02-14 03:15:26 GMT 45.948898 8.928870 40,000 20 408 0
2019-02-14 03:15:23 GMT 45.943222 8.925856 40,000 20 408 0
2019-02-14 03:15:20 GMT 45.939011 8.923578 40,000 20 408 0
2019-02-14 03:15:17 GMT 45.932953 8.920349 40,000 20 408 0
2019-02-14 03:15:14 GMT 45.926971 8.917147 40,000 20 408 0
2019-02-14 03:15:10 GMT 45.914566 8.910461 40,000 20 408 0
2019-02-14 03:15:07 GMT 45.914566 8.910461 40,000 20 409 0
2019-02-14 03:15:04 GMT 45.908569 8.907233 40,000 20 409 0
2019-02-14 03:15:01 GMT 45.903950 8.904762 40,000 20 409 0
2019-02-14 03:14:58 GMT 45.899017 8.902153 40,000 20 409 0
2019-02-14 03:14:55 GMT 45.894035 8.899475 40,000 20 409 0
2019-02-14 03:14:52 GMT 45.888405 8.896454 40,000 20 409 0
2019-02-14 03:14:49 GMT 45.883804 8.893969 40,000 20 409 0
2019-02-14 03:14:46 GMT 45.878487 8.891098 40,000 20 409 0
2019-02-14 03:14:43 GMT 45.873184 8.888274 40,000 20 408 0
2019-02-14 03:14:39 GMT 45.865780 8.884300 40,000 20 408 0
2019-02-14 03:14:36 GMT 45.859726 8.881040 40,000 20 408 0
2019-02-14 03:14:33 GMT 45.854794 8.878464 40,000 20 408 0
2019-02-14 03:14:30 GMT 45.849483 8.875580 40,000 20 408 0
2019-02-14 03:14:27 GMT 45.845249 8.873314 40,000 20 408 0
2019-02-14 03:14:24 GMT 45.839905 8.870455 40,000 20 408 0
2019-02-14 03:14:21 GMT 45.834274 8.867441 40,000 20 408 0
2019-02-14 03:14:17 GMT 45.827866 8.864024 40,000 20 408 0
2019-02-14 03:14:14 GMT 45.821182 8.860474 40,000 20 408 0
2019-02-14 03:14:11 GMT 45.815872 8.857593 40,000 20 408 0
2019-02-14 03:14:08 GMT 45.811615 8.855315 40,000 20 408 0
2019-02-14 03:14:05 GMT 45.805252 8.851899 40,000 20 408 0
2019-02-14 03:14:02 GMT 45.798889 8.848549 40,000 20 408 0
2019-02-14 03:13:58 GMT 45.792526 8.845133 40,000 20 408 0
2019-02-14 03:13:55 GMT 45.787895 8.842621 40,000 20 408 0
2019-02-14 03:13:52 GMT 45.780823 8.838844 40,000 20 408 0
2019-02-14 03:13:49 GMT 45.777283 8.836990 40,000 20 407 0
2019-02-14 03:13:46 GMT 45.772018 8.834147 40,000 20 407 0
2019-02-14 03:13:43 GMT 45.765270 8.830536 40,000 20 407 0
2019-02-14 03:13:40 GMT 45.759979 8.827716 40,000 20 407 0
2019-02-14 03:13:37 GMT 45.751865 8.823395 40,000 20 407 0
2019-02-14 03:13:34 GMT 45.751865 8.823395 40,000 20 407 0
2019-02-14 03:13:31 GMT 45.746567 8.820615 40,000 20 407 0
2019-02-14 03:13:28 GMT 45.738831 8.816461 40,000 20 407 0
2019-02-14 03:13:22 GMT 45.727890 8.810623 40,000 20 407 0
2019-02-14 03:13:19 GMT 45.723656 8.808357 40,000 20 407 0
2019-02-14 03:13:16 GMT 45.720116 8.806435 40,000 20 407 0
2019-02-14 03:13:13 GMT 45.713737 8.803070 40,000 20 407 0
2019-02-14 03:13:10 GMT 45.707748 8.799915 40,000 20 407 0
2019-02-14 03:13:06 GMT 45.702473 8.797096 40,000 20 407 0
2019-02-14 03:13:03 GMT 45.691860 8.791466 40,000 20 407 0
2019-02-14 03:12:57 GMT 45.686600 8.788661 40,000 20 407 0
2019-02-14 03:12:54 GMT 45.678818 8.784507 40,000 20 406 0
2019-02-14 03:12:51 GMT 45.672119 8.780960 40,000 20 406 0
2019-02-14 03:12:46 GMT 45.665791 8.777596 40,000 20 406 0
2019-02-14 03:12:43 GMT 45.660507 8.774727 40,000 20 406 0
2019-02-14 03:12:40 GMT 45.649933 8.769167 40,000 20 407 0
2019-02-14 03:12:37 GMT 45.649933 8.769167 40,000 20 407 0
2019-02-14 03:12:34 GMT 45.645355 8.766747 40,000 20 407 0
2019-02-14 03:12:31 GMT 45.634087 8.760773 40,000 20 407 0
2019-02-14 03:12:28 GMT 45.634087 8.760773 40,000 20 407 0
2019-02-14 03:12:25 GMT 45.629154 8.758095 40,000 20 407 0
2019-02-14 03:12:22 GMT 45.623840 8.755300 40,000 20 407 0
2019-02-14 03:12:19 GMT 45.618587 8.752533 40,000 20 407 0
2019-02-14 03:12:15 GMT 45.611160 8.748601 40,000 20 407 0
2019-02-14 03:12:12 GMT 45.606949 8.746323 40,000 20 407 0
2019-02-14 03:12:09 GMT 45.600945 8.743195 40,000 20 407 0
2019-02-14 03:12:05 GMT 45.594223 8.739624 40,000 20 407 64
2019-02-14 03:12:02 GMT 45.589279 8.737011 40,000 20 408 0
2019-02-14 03:11:58 GMT 45.578365 8.731178 40,000 20 407 0
2019-02-14 03:11:55 GMT 45.576923 8.730423 40,000 20 407 0
2019-02-14 03:11:52 GMT 45.565979 8.724618 40,000 20 408 0
2019-02-14 03:11:49 GMT 45.561035 8.721939 40,000 20 408 0
2019-02-14 03:11:46 GMT 45.561035 8.721939 40,000 20 408 0
2019-02-14 03:11:43 GMT 45.555405 8.718991 40,000 20 408 0
2019-02-14 03:11:40 GMT 45.546898 8.714493 40,000 20 408 -64
2019-02-14 03:11:35 GMT 45.540192 8.710952 40,000 20 408 -64
2019-02-14 03:11:32 GMT 45.534851 8.708104 40,000 20 408 0
2019-02-14 03:11:28 GMT 45.522812 8.701760 40,000 20 408 0
2019-02-14 03:11:25 GMT 45.522812 8.701760 40,000 20 408 0
2019-02-14 03:11:21 GMT 45.516823 8.698559 40,000 20 409 0
2019-02-14 03:11:18 GMT 45.511143 8.695545 40,000 20 409 0
2019-02-14 03:11:15 GMT 45.504066 8.691793 40,000 20 409 0
2019-02-14 03:11:12 GMT 45.500839 8.690120 40,000 20 410 0
2019-02-14 03:11:09 GMT 45.495163 8.687112 40,000 20 410 0
2019-02-14 03:11:06 GMT 45.489124 8.683955 40,000 20 410 0
2019-02-14 03:11:03 GMT 45.480972 8.679592 40,000 20 410 0
2019-02-14 03:10:59 GMT 45.470261 8.673968 40,000 20 410 64
2019-02-14 03:10:55 GMT 45.463520 8.670357 40,000 20 411 0
2019-02-14 03:10:52 GMT 45.463520 8.670357 40,000 20 411 64
2019-02-14 03:10:49 GMT 45.459236 8.668146 40,000 20 411 64
2019-02-14 03:10:46 GMT 45.453186 8.664943 40,000 20 411 0
2019-02-14 03:10:43 GMT 45.443893 8.660039 40,000 20 411 -64
2019-02-14 03:10:37 GMT 45.436752 8.656311 40,000 20 411 0
2019-02-14 03:10:34 GMT 45.426418 8.650863 40,000 20 411 0
2019-02-14 03:10:31 GMT 45.426418 8.650863 40,000 20 411 0
2019-02-14 03:10:27 GMT 45.421097 8.648006 40,000 20 410 0
2019-02-14 03:10:23 GMT 45.412918 8.643695 40,000 20 410 0
2019-02-14 03:10:20 GMT 45.407547 8.640878 40,000 20 410 0
2019-02-14 03:10:17 GMT 45.402557 8.638197 40,000 20 410 0
2019-02-14 03:10:13 GMT 45.394043 8.633684 40,000 20 410 0
2019-02-14 03:10:10 GMT 45.389786 8.631461 40,000 20 411 0
2019-02-14 03:10:06 GMT 45.383732 8.628287 40,000 20 410 0
2019-02-14 03:10:03 GMT 45.377308 8.624870 40,000 20 410 0
2019-02-14 03:10:00 GMT 45.371979 8.622044 40,000 20 410 0
2019-02-14 03:09:57 GMT 45.367344 8.619645 40,000 20 410 0
2019-02-14 03:09:53 GMT 45.359524 8.615492 40,000 20 410 0
2019-02-14 03:09:50 GMT 45.353100 8.612142 40,000 20 410 0
2019-02-14 03:09:47 GMT 45.348862 8.609932 40,000 20 410 0
2019-02-14 03:09:43 GMT 45.342773 8.606742 40,000 20 410 -64
2019-02-14 03:09:40 GMT 45.335316 8.602831 40,000 20 410 -64
2019-02-14 03:09:37 GMT 45.330688 8.600398 40,000 20 410 0
2019-02-14 03:09:33 GMT 45.322514 8.596065 40,000 20 410 0
2019-02-14 03:09:30 GMT 45.317860 8.593653 40,000 20 410 0
2019-02-14 03:09:27 GMT 45.312195 8.590655 40,000 20 410 0
2019-02-14 03:09:24 GMT 45.299004 8.583739 40,000 20 410 0
2019-02-14 03:09:20 GMT 45.299004 8.583739 40,000 20 410 0
2019-02-14 03:09:17 GMT 45.294388 8.581369 40,000 20 410 0
2019-02-14 03:09:13 GMT 45.289089 8.578514 40,000 20 410 0
2019-02-14 03:09:10 GMT 45.283035 8.575352 40,000 20 410 0
2019-02-14 03:09:07 GMT 45.278046 8.572736 40,000 20 410 0
2019-02-14 03:09:04 GMT 45.270950 8.569009 40,000 20 410 0
2019-02-14 03:09:01 GMT 45.266693 8.566786 40,000 20 410 0
2019-02-14 03:08:57 GMT 45.259899 8.563240 40,000 20 410 0
2019-02-14 03:08:54 GMT 45.249573 8.557892 40,000 20 410 0
2019-02-14 03:08:48 GMT 45.244583 8.555276 40,000 20 409 0
2019-02-14 03:08:45 GMT 45.239281 8.552521 40,000 20 410 0
2019-02-14 03:08:42 GMT 45.231766 8.548606 40,000 20 410 0
2019-02-14 03:08:39 GMT 45.227875 8.546492 40,000 20 411 64
2019-02-14 03:08:36 GMT 45.221451 8.543143 40,000 20 410 64
2019-02-14 03:08:33 GMT 45.217167 8.540932 40,000 20 411 64
2019-02-14 03:08:30 GMT 45.203617 8.533831 40,000 20 411 -64
2019-02-14 03:08:26 GMT 45.203617 8.533831 40,000 20 411 -64
2019-02-14 03:08:23 GMT 45.198990 8.531407 40,000 20 411 0
2019-02-14 03:08:19 GMT 45.193657 8.528606 40,000 20 411 0
2019-02-14 03:08:16 GMT 45.186489 8.524855 40,000 20 411 0
2019-02-14 03:08:13 GMT 45.181137 8.522055 40,000 20 411 0
2019-02-14 03:08:09 GMT 45.174728 8.518720 40,000 20 411 0
2019-02-14 03:08:06 GMT 45.168659 8.515543 40,000 20 411 0
2019-02-14 03:08:03 GMT 45.161537 8.511792 40,000 20 411 0
2019-02-14 03:08:00 GMT 45.156876 8.509369 40,000 20 411 0
2019-02-14 03:07:57 GMT 45.152618 8.507145 40,000 20 411 0
2019-02-14 03:07:54 GMT 45.148315 8.504857 40,000 20 411 0
2019-02-14 03:07:50 GMT 45.141174 8.501129 40,000 20 413 0
2019-02-14 03:07:47 GMT 45.135452 8.498121 40,000 20 412 0
2019-02-14 03:07:44 GMT 45.129730 8.495178 40,000 20 412 0
2019-02-14 03:07:41 GMT 45.123642 8.492030 40,000 20 412 0
2019-02-14 03:07:38 GMT 45.119362 8.489752 40,000 20 415 0
2019-02-14 03:07:34 GMT 45.111145 8.485500 40,000 20 413 0
2019-02-14 03:07:31 GMT 45.101807 8.480661 40,000 20 413 0
2019-02-14 03:07:25 GMT 45.096817 8.478045 40,000 20 413 0
2019-02-14 03:07:22 GMT 45.089985 8.474478 40,000 20 413 0
2019-02-14 03:07:19 GMT 45.084595 8.471636 40,000 20 414 0
2019-02-14 03:07:16 GMT 45.079605 8.469020 40,000 20 414 0
2019-02-14 03:07:13 GMT 45.075645 8.466976 40,000 20 414 0
2019-02-14 03:07:10 GMT 45.067734 8.462822 40,000 20 414 0
2019-02-14 03:07:05 GMT 45.059464 8.458557 40,000 20 414 0
2019-02-14 03:07:02 GMT 45.054428 8.455941 40,000 20 414 0
2019-02-14 03:06:59 GMT 45.049065 8.453109 40,000 20 414 0
2019-02-14 03:06:56 GMT 45.043671 8.450317 40,000 20 414 0
2019-02-14 03:06:53 GMT 45.038635 8.447702 40,000 20 415 0
2019-02-14 03:06:49 GMT 45.031052 8.443797 40,000 20 415 0
2019-02-14 03:06:46 GMT 45.024578 8.440448 40,000 20 415 0
2019-02-14 03:06:43 GMT 45.019867 8.438023 40,000 20 415 0
2019-02-14 03:06:40 GMT 45.014832 8.435407 40,000 20 415 0
2019-02-14 03:06:37 GMT 45.002560 8.429126 40,000 20 415 0
2019-02-14 03:06:34 GMT 45.002560 8.429126 40,000 20 415 -64
2019-02-14 03:06:31 GMT 44.998993 8.427233 40,000 20 415 -64
2019-02-14 03:06:28 GMT 44.994274 8.424839 40,000 20 416 0
2019-02-14 03:06:25 GMT 44.987804 8.421422 40,000 20 416 0
2019-02-14 03:06:21 GMT 44.980587 8.417671 40,000 20 415 0
2019-02-14 03:06:17 GMT 44.973373 8.413920 40,000 20 416 0
2019-02-14 03:06:14 GMT 44.967602 8.410972 40,000 20 416 0
2019-02-14 03:06:11 GMT 44.962524 8.408292 40,000 20 416 0
2019-02-14 03:06:07 GMT 44.954613 8.404206 40,000 20 416 0
2019-02-14 03:06:03 GMT 44.948456 8.401010 40,000 20 416 0
2019-02-14 03:06:00 GMT 44.943020 8.398177 40,000 20 416 0
2019-02-14 03:05:57 GMT 44.936142 8.394666 40,000 20 416 0
2019-02-14 03:05:54 GMT 44.932919 8.392952 40,000 20 416 0
2019-02-14 03:05:50 GMT 44.925655 8.389200 40,000 20 416 0
2019-02-14 03:05:47 GMT 44.920258 8.386361 40,000 20 416 0
2019-02-14 03:05:44 GMT 44.914112 8.383171 40,000 20 416 0
2019-02-14 03:05:41 GMT 44.907593 8.379822 40,000 20 416 0
2019-02-14 03:05:37 GMT 44.901821 8.376807 40,000 20 417 0
2019-02-14 03:05:34 GMT 44.893524 8.372498 40,000 20 416 0
2019-02-14 03:05:30 GMT 44.888443 8.369816 40,000 20 416 0
2019-02-14 03:05:26 GMT 44.880478 8.365696 40,000 20 416 0
2019-02-14 03:05:23 GMT 44.876541 8.363677 40,000 20 416 0
2019-02-14 03:05:20 GMT 44.870026 8.360328 40,000 20 416 0
2019-02-14 03:05:17 GMT 44.864594 8.357522 40,000 20 416 0
2019-02-14 03:05:14 GMT 44.852661 8.351351 40,000 20 416 0
2019-02-14 03:05:10 GMT 44.852661 8.351351 40,000 20 416 0
2019-02-14 03:05:06 GMT 44.845448 8.347600 40,000 20 416 0
2019-02-14 03:05:03 GMT 44.839325 8.344443 40,000 20 416 0
2019-02-14 03:05:00 GMT 44.834244 8.341827 40,000 20 416 0
2019-02-14 03:04:56 GMT 44.827744 8.338492 40,000 20 416 0
2019-02-14 03:04:53 GMT 44.821243 8.335157 40,000 20 416 0
2019-02-14 03:04:50 GMT 44.816208 8.332541 40,000 20 416 0
2019-02-14 03:04:46 GMT 44.808975 8.328814 40,000 20 416 0
2019-02-14 03:04:42 GMT 44.802475 8.325479 40,000 20 416 0
2019-02-14 03:04:39 GMT 44.795589 8.321943 40,000 20 416 0
2019-02-14 03:04:36 GMT 44.789070 8.318526 40,000 20 417 0
2019-02-14 03:04:33 GMT 44.784042 8.315914 40,000 20 417 -64
2019-02-14 03:04:29 GMT 44.778969 8.313368 40,000 20 417 -64
2019-02-14 03:04:25 GMT 44.771709 8.309616 40,000 20 417 0
2019-02-14 03:04:22 GMT 44.765934 8.306669 40,000 20 417 0
2019-02-14 03:04:19 GMT 44.760860 8.304056 40,000 20 417 0
2019-02-14 03:04:15 GMT 44.753647 8.300372 40,000 20 417 0
2019-02-14 03:04:12 GMT 44.747452 8.297163 40,000 20 409 0
2019-02-14 03:04:09 GMT 44.742416 8.294612 40,000 20 417 -64
2019-02-14 03:04:06 GMT 44.735870 8.291212 40,000 20 417 0
2019-02-14 03:04:02 GMT 44.723946 8.285098 40,000 20 417 0
2019-02-14 03:03:59 GMT 44.723946 8.285098 40,000 20 417 0
2019-02-14 03:03:54 GMT 44.714542 8.280275 40,000 20 417 0
2019-02-14 03:03:51 GMT 44.710167 8.278064 40,000 20 417 0
2019-02-14 03:03:48 GMT 44.704391 8.275050 40,000 20 417 0
2019-02-14 03:03:44 GMT 44.696045 8.270809 40,000 20 417 0
2019-02-14 03:03:41 GMT 44.691696 8.268520 40,000 20 417 -64
2019-02-14 03:03:38 GMT 44.687347 8.266296 40,000 20 417 -64
2019-02-14 03:03:34 GMT 44.679382 8.262242 40,000 20 417 0
2019-02-14 03:03:31 GMT 44.673615 8.259234 40,000 20 416 0
2019-02-14 03:03:28 GMT 44.668919 8.256828 40,000 20 416 -64
2019-02-14 03:03:24 GMT 44.660961 8.252742 40,000 20 416 0
2019-02-14 03:03:21 GMT 44.655533 8.249948 40,000 20 416 0
2019-02-14 03:03:18 GMT 44.650112 8.247115 40,000 20 416 0
2019-02-14 03:03:14 GMT 44.642899 8.243431 40,000 19 415 0
2019-02-14 03:03:11 GMT 44.631683 8.237653 40,000 19 415 0
2019-02-14 03:03:08 GMT 44.631683 8.237653 40,000 19 415 0
2019-02-14 03:03:05 GMT 44.626648 8.235103 40,000 19 415 0
2019-02-14 03:03:02 GMT 44.621204 8.232310 40,000 19 415 0
2019-02-14 03:02:59 GMT 44.616486 8.229937 40,000 19 415 0
2019-02-14 03:02:56 GMT 44.609299 8.226275 40,000 19 415 -64
2019-02-14 03:02:53 GMT 44.600258 8.221659 40,000 19 415 0
2019-02-14 03:02:47 GMT 44.594101 8.218558 40,000 19 415 0
2019-02-14 03:02:44 GMT 44.587601 8.215223 40,000 20 415 0
2019-02-14 03:02:41 GMT 44.583298 8.213000 40,000 20 415 -64
2019-02-14 03:02:38 GMT 44.576797 8.209730 40,000 20 415 -64
2019-02-14 03:02:35 GMT 44.572090 8.207323 40,000 20 415 0
2019-02-14 03:02:32 GMT 44.567062 8.204710 40,000 20 415 0
2019-02-14 03:02:29 GMT 44.560913 8.201556 40,000 20 415 0
2019-02-14 03:02:26 GMT 44.557343 8.199724 40,000 20 415 0
2019-02-14 03:02:22 GMT 44.549049 8.195533 40,000 20 415 0
2019-02-14 03:02:19 GMT 44.541832 8.191848 40,000 20 415 0
2019-02-14 03:02:16 GMT 44.532074 8.186842 40,000 20 415 0
2019-02-14 03:02:13 GMT 44.532074 8.186842 40,000 20 416 0
2019-02-14 03:02:10 GMT 44.528099 8.184814 40,000 20 416 0
2019-02-14 03:02:07 GMT 44.522327 8.181867 40,000 20 416 0
2019-02-14 03:02:04 GMT 44.516556 8.178919 40,000 20 416 0
2019-02-14 03:02:01 GMT 44.511154 8.176182 40,000 20 416 0
2019-02-14 03:01:58 GMT 44.503567 8.172287 40,000 20 416 0
2019-02-14 03:01:55 GMT 44.497749 8.169340 40,000 20 416 0
2019-02-14 03:01:52 GMT 44.494492 8.167681 40,000 20 417 0
2019-02-14 03:01:49 GMT 44.488724 8.164673 40,000 20 417 0
2019-02-14 03:01:45 GMT 44.480385 8.160430 40,000 20 417 64
2019-02-14 03:01:42 GMT 44.476055 8.158220 40,000 19 418 64
2019-02-14 03:01:39 GMT 44.471329 8.155845 40,000 19 418 64
2019-02-14 03:01:36 GMT 44.465904 8.153061 40,000 19 418 64
2019-02-14 03:01:33 GMT 44.460434 8.150286 40,000 19 418 0
2019-02-14 03:01:30 GMT 44.455353 8.147736 40,000 19 418 -64
2019-02-14 03:01:27 GMT 44.448807 8.144400 40,000 19 418 -64
2019-02-14 03:01:24 GMT 44.442631 8.141271 40,000 20 418 -64
2019-02-14 03:01:20 GMT 44.437180 8.138515 40,000 20 418 -64
2019-02-14 03:01:17 GMT 44.431736 8.135711 40,000 20 418 -64
2019-02-14 03:01:14 GMT 44.425220 8.132361 40,000 19 419 -64
2019-02-14 03:01:11 GMT 44.419399 8.129414 40,000 19 419 -64
2019-02-14 03:01:08 GMT 44.414658 8.127005 40,000 19 419 0
2019-02-14 03:01:05 GMT 44.409206 8.124256 40,000 19 419 0
2019-02-14 03:01:02 GMT 44.397522 8.118361 40,000 19 420 0
2019-02-14 03:00:59 GMT 44.397522 8.118361 40,000 19 420 0
2019-02-14 03:00:56 GMT 44.388428 8.113730 40,000 20 420 -64
2019-02-14 03:00:49 GMT 44.380016 8.109518 40,000 20 420 -64
2019-02-14 03:00:46 GMT 44.374153 8.106503 40,000 19 421 0
2019-02-14 03:00:43 GMT 44.369778 8.104293 40,000 19 421 -64
2019-02-14 03:00:38 GMT 44.354416 8.096522 40,000 19 421 -64
2019-02-14 03:00:35 GMT 44.354416 8.096522 40,000 19 421 0
2019-02-14 03:00:31 GMT 44.345993 8.092281 40,000 19 421 0
2019-02-14 03:00:28 GMT 44.341644 8.090123 40,000 19 421 0
2019-02-14 03:00:25 GMT 44.336121 8.087344 40,000 19 421 0
2019-02-14 03:00:22 GMT 44.331390 8.084891 40,000 19 422 0
2019-02-14 03:00:18 GMT 44.324066 8.081229 40,000 19 422 0
2019-02-14 03:00:15 GMT 44.316742 8.077502 40,000 19 422 0
2019-02-14 03:00:10 GMT 44.308281 8.073276 40,000 19 422 0
2019-02-14 03:00:07 GMT 44.303162 8.070664 40,000 19 422 0
2019-02-14 03:00:04 GMT 44.298737 8.068453 40,000 19 423 0
2019-02-14 03:00:01 GMT 44.285889 8.061938 40,000 20 423 -64
2019-02-14 02:59:58 GMT 44.285889 8.061938 40,000 20 423 -64
2019-02-14 02:59:55 GMT 44.280350 8.059142 40,000 20 423 0
2019-02-14 02:59:51 GMT 44.274857 8.056314 40,000 20 423 0
2019-02-14 02:59:48 GMT 44.260895 8.049251 40,000 20 423 0
2019-02-14 02:59:44 GMT 44.260895 8.049251 40,000 20 423 0
2019-02-14 02:59:39 GMT 44.251675 8.044605 40,000 19 423 0
2019-02-14 02:59:36 GMT 44.244690 8.041077 40,000 19 423 0
2019-02-14 02:59:32 GMT 44.239197 8.038308 40,000 19 423 0
2019-02-14 02:59:29 GMT 44.233658 8.035518 40,000 19 422 0
2019-02-14 02:59:26 GMT 44.228165 8.032748 40,000 19 422 0
2019-02-14 02:59:23 GMT 44.223358 8.030352 40,000 19 423 0
2019-02-14 02:59:19 GMT 44.214569 8.025905 40,000 19 423 0
2019-02-14 02:59:16 GMT 44.205002 8.021131 40,000 19 423 0
2019-02-14 02:59:10 GMT 44.191772 8.014526 40,000 19 422 0
2019-02-14 02:59:07 GMT 44.191772 8.014526 40,000 19 422 0
2019-02-14 02:59:04 GMT 44.185867 8.011588 40,000 19 422 0
2019-02-14 02:58:59 GMT 44.176678 8.006941 40,000 19 422 0
2019-02-14 02:58:56 GMT 44.172302 8.004717 40,000 19 422 0
2019-02-14 02:58:53 GMT 44.167511 8.002326 40,000 19 422 0
2019-02-14 02:58:49 GMT 44.158337 7.997720 40,000 19 421 0
2019-02-14 02:58:46 GMT 44.155014 7.996067 40,000 19 422 0
2019-02-14 02:58:43 GMT 44.148792 7.992946 40,000 19 422 0
2019-02-14 02:58:38 GMT 44.139996 7.988499 40,000 20 422 0
2019-02-14 02:58:35 GMT 44.131939 7.984379 40,000 20 421 0
2019-02-14 02:58:29 GMT 44.123520 7.980162 40,000 19 422 0
2019-02-14 02:58:26 GMT 44.116196 7.976457 40,000 19 422 0
2019-02-14 02:58:23 GMT 44.111069 7.973839 40,000 19 421 0
2019-02-14 02:58:18 GMT 44.101501 7.969112 40,000 19 421 0
2019-02-14 02:58:15 GMT 44.097107 7.966876 40,000 19 421 0
2019-02-14 02:58:12 GMT 44.092712 7.964705 40,000 19 421 0
2019-02-14 02:58:08 GMT 44.084656 7.960681 40,000 19 421 -64
2019-02-14 02:58:05 GMT 44.078403 7.957567 40,000 19 421 0
2019-02-14 02:58:02 GMT 44.073669 7.955187 40,000 19 421 0
2019-02-14 02:57:57 GMT 44.064880 7.950780 40,000 19 421 0
2019-02-14 02:57:54 GMT 44.059364 7.948020 40,000 19 421 0
2019-02-14 02:57:51 GMT 44.054245 7.945404 40,000 19 421 0
2019-02-14 02:57:45 GMT 44.041069 7.938865 40,000 19 421 0
2019-02-14 02:57:41 GMT 44.036316 7.936472 40,000 19 421 0
2019-02-14 02:57:37 GMT 44.026405 7.931540 40,000 19 421 0
2019-02-14 02:57:34 GMT 44.021984 7.929317 40,000 19 421 0
2019-02-14 02:57:31 GMT 44.016865 7.926767 40,000 19 421 0
2019-02-14 02:57:27 GMT 44.008808 7.922712 40,000 19 421 0
2019-02-14 02:57:24 GMT 43.998524 7.917611 40,000 19 421 0
2019-02-14 02:57:21 GMT 43.998524 7.917611 40,000 19 421 0
2019-02-14 02:57:15 GMT 43.987488 7.912053 40,000 19 422 0
2019-02-14 02:57:11 GMT 43.980133 7.908391 40,000 19 423 0
2019-02-14 02:57:06 GMT 43.972034 7.904336 40,000 19 423 0
2019-02-14 02:57:03 GMT 43.965088 7.900895 40,000 19 424 -64
2019-02-14 02:57:00 GMT 43.960648 7.898659 40,000 19 424 0
2019-02-14 02:56:54 GMT 43.949966 7.893350 40,000 19 424 0
2019-02-14 02:56:51 GMT 43.941868 7.889295 40,000 19 424 0
2019-02-14 02:56:44 GMT 43.931168 7.883968 40,000 19 424 0
2019-02-14 02:56:40 GMT 43.922688 7.879748 40,000 19 423 0
2019-02-14 02:56:34 GMT 43.911655 7.874254 40,000 19 423 0
2019-02-14 02:56:31 GMT 43.906128 7.871512 40,000 19 423 0
2019-02-14 02:56:24 GMT 43.894665 7.865819 40,000 19 424 0
2019-02-14 02:56:21 GMT 43.888054 7.862549 40,000 19 424 0
2019-02-14 02:56:18 GMT 43.883286 7.860143 40,000 19 424 0
2019-02-14 02:56:15 GMT 43.875530 7.856336 40,000 19 424 0
2019-02-14 02:56:11 GMT 43.869617 7.853394 40,000 19 424 0
2019-02-14 02:56:08 GMT 43.864105 7.850626 40,000 19 426 0
2019-02-14 02:56:04 GMT 43.856735 7.846921 40,000 19 424 0
2019-02-14 02:56:01 GMT 43.850830 7.843983 40,000 19 424 0
2019-02-14 02:55:58 GMT 43.845657 7.841428 40,000 19 424 0
2019-02-14 02:55:54 GMT 43.837917 7.837568 40,000 19 424 0
2019-02-14 02:55:51 GMT 43.832382 7.834849 40,000 19 424 -64
2019-02-14 02:55:47 GMT 43.824966 7.831208 40,000 19 424 -64
2019-02-14 02:55:42 GMT 43.817596 7.827503 40,000 19 424 0
2019-02-14 02:55:39 GMT 43.810226 7.823862 40,000 19 425 0
2019-02-14 02:55:36 GMT 43.805786 7.821691 40,000 19 424 0
2019-02-14 02:55:33 GMT 43.799881 7.818753 40,000 19 424 0
2019-02-14 02:55:30 GMT 43.794346 7.815988 40,000 19 424 0
2019-02-14 02:55:27 GMT 43.780285 7.809056 40,000 19 425 0
2019-02-14 02:55:22 GMT 43.780285 7.809056 40,000 19 424 0
2019-02-14 02:55:19 GMT 43.773952 7.805917 40,000 19 424 0
2019-02-14 02:55:16 GMT 43.768414 7.803170 40,000 19 426 0
2019-02-14 02:55:12 GMT 43.761383 7.799718 40,000 19 425 0
2019-02-14 02:55:09 GMT 43.756218 7.797154 40,000 19 425 0
2019-02-14 02:55:06 GMT 43.749527 7.793842 40,000 19 425 0
2019-02-14 02:55:03 GMT 43.743622 7.790967 40,000 19 425 0
2019-02-14 02:55:00 GMT 43.738064 7.788195 40,000 19 425 0
2019-02-14 02:54:57 GMT 43.733963 7.786177 40,000 19 426 0
2019-02-14 02:54:52 GMT 43.724350 7.781450 40,000 19 427 0
2019-02-14 02:54:48 GMT 43.714691 7.776660 40,000 19 426 0
2019-02-14 02:54:43 GMT 43.704636 7.771781 40,000 19 426 0
2019-02-14 02:54:40 GMT 43.700592 7.769761 40,000 19 427 0
2019-02-14 02:54:36 GMT 43.694641 7.766823 40,000 19 427 0
2019-02-14 02:54:31 GMT 43.685715 7.762416 40,000 19 427 0
2019-02-14 02:54:27 GMT 43.677124 7.758244 40,000 19 427 0
2019-02-14 02:54:22 GMT 43.666351 7.752898 40,000 19 428 -64
2019-02-14 02:54:19 GMT 43.662643 7.751046 40,000 19 428 -64
2019-02-14 02:54:16 GMT 43.658157 7.748874 40,000 19 428 -64
2019-02-14 02:54:13 GMT 43.651848 7.745688 40,000 19 428 64
2019-02-14 02:54:10 GMT 43.644745 7.742168 40,000 18 428 64
2019-02-14 02:54:07 GMT 43.639526 7.739677 40,000 18 427 64
2019-02-14 02:54:02 GMT 43.629410 7.735094 40,000 16 428 64
2019-02-14 02:53:59 GMT 43.624847 7.733132 40,000 13 428 64
2019-02-14 02:53:56 GMT 43.619541 7.730974 40,000 15 427 64
2019-02-14 02:53:51 GMT 43.608490 7.726838 40,000 13 428 64
2019-02-14 02:53:48 GMT 43.604271 7.725416 40,000 13 428 64
2019-02-14 02:53:45 GMT 43.599243 7.723772 40,000 12 427 64
2019-02-14 02:53:39 GMT 43.586884 7.720067 40,000 10 427 128
2019-02-14 02:53:36 GMT 43.580658 7.718406 40,000 9 427 64
2019-02-14 02:53:29 GMT 43.567383 7.715468 40,000 7 427 64
2019-02-14 02:53:25 GMT 43.560333 7.714191 40,000 6 427 64
2019-02-14 02:53:21 GMT 43.551292 7.712729 40,000 6 427 0
2019-02-14 02:53:18 GMT 43.543472 7.711552 40,000 6 427 0
2019-02-14 02:53:15 GMT 43.539917 7.710997 40,000 6 427 0
2019-02-14 02:53:12 GMT 43.532867 7.709911 40,000 6 427 0
2019-02-14 02:53:08 GMT 43.526550 7.708889 40,000 6 427 0
2019-02-14 02:53:05 GMT 43.519871 7.707890 40,000 6 427 0
2019-02-14 02:53:00 GMT 43.510468 7.706386 40,000 6 427 0
2019-02-14 02:52:57 GMT 43.504185 7.705405 40,000 6 427 0
2019-02-14 02:52:54 GMT 43.499481 7.704686 40,000 6 427 0
2019-02-14 02:52:50 GMT 43.490433 7.703268 40,000 6 427 0
2019-02-14 02:52:47 GMT 43.485329 7.702462 40,000 6 427 0
2019-02-14 02:52:44 GMT 43.479046 7.701481 40,000 6 427 0
2019-02-14 02:52:40 GMT 43.471970 7.700370 40,000 6 427 0
2019-02-14 02:52:37 GMT 43.463356 7.698996 40,000 6 427 0
2019-02-14 02:52:30 GMT 43.450787 7.697035 40,000 6 427 0
2019-02-14 02:52:27 GMT 43.446087 7.696315 40,000 6 427 0
2019-02-14 02:52:23 GMT 43.439011 7.695204 40,000 6 427 0
2019-02-14 02:52:20 GMT 43.432343 7.694134 40,000 6 427 0
2019-02-14 02:52:17 GMT 43.426071 7.693176 40,000 6 427 0
2019-02-14 02:52:13 GMT 43.418198 7.691963 40,000 6 427 0
2019-02-14 02:52:09 GMT 43.410751 7.690822 40,000 6 427 0
2019-02-14 02:52:06 GMT 43.405258 7.689972 40,000 6 427 0
2019-02-14 02:52:02 GMT 43.397827 7.688833 40,000 6 426 0
2019-02-14 02:51:59 GMT 43.385662 7.686898 40,000 6 426 0
2019-02-14 02:51:56 GMT 43.378586 7.685852 40,000 6 426 0
2019-02-14 02:51:53 GMT 43.378586 7.685852 40,000 6 426 0
2019-02-14 02:51:48 GMT 43.368027 7.684170 40,000 6 426 0
2019-02-14 02:51:45 GMT 43.363312 7.683467 40,000 6 426 0
2019-02-14 02:51:42 GMT 43.345673 7.680686 40,000 6 426 0
2019-02-14 02:51:36 GMT 43.345673 7.680686 40,000 6 426 0
2019-02-14 02:51:32 GMT 43.338226 7.679507 40,000 6 426 0
2019-02-14 02:51:28 GMT 43.328064 7.677910 40,000 6 426 0
2019-02-14 02:51:22 GMT 43.318253 7.676370 40,000 6 426 0
2019-02-14 02:51:15 GMT 43.297531 7.673120 40,000 6 426 0
2019-02-14 02:51:11 GMT 43.297531 7.673120 40,000 6 426 0
2019-02-14 02:51:06 GMT 43.287323 7.671523 40,000 6 426 0
2019-02-14 02:51:03 GMT 43.280273 7.670437 40,000 6 426 0
2019-02-14 02:50:56 GMT 43.266582 7.668326 40,000 6 426 0
2019-02-14 02:50:53 GMT 43.260296 7.667345 40,000 6 426 0
2019-02-14 02:50:50 GMT 43.255234 7.666541 40,000 6 426 0
2019-02-14 02:50:45 GMT 43.244656 7.664926 40,000 6 426 0
2019-02-14 02:50:42 GMT 43.240356 7.664241 40,000 6 425 0
2019-02-14 02:50:39 GMT 43.234863 7.663411 40,000 6 425 0
2019-02-14 02:50:35 GMT 43.220810 7.661175 40,000 6 425 0
2019-02-14 02:50:32 GMT 43.215317 7.660345 40,000 6 425 0
2019-02-14 02:50:29 GMT 43.215317 7.660345 40,000 6 425 0
2019-02-14 02:50:26 GMT 43.207088 7.659040 40,000 6 425 0
2019-02-14 02:50:22 GMT 43.201218 7.658173 40,000 6 425 0
2019-02-14 02:50:19 GMT 43.194992 7.657215 40,000 6 425 0
2019-02-14 02:50:15 GMT 43.185207 7.655705 40,000 6 425 0
2019-02-14 02:50:11 GMT 43.178558 7.654660 40,000 6 425 0
2019-02-14 02:50:07 GMT 43.171509 7.653574 40,000 6 425 0
2019-02-14 02:50:04 GMT 43.164459 7.652489 40,000 6 425 0
2019-02-14 02:50:01 GMT 43.159416 7.651716 40,000 6 425 0
2019-02-14 02:49:58 GMT 43.153923 7.650866 40,000 6 425 0
2019-02-14 02:49:55 GMT 43.146896 7.649754 40,000 6 425 0
2019-02-14 02:49:51 GMT 43.140244 7.648720 40,000 6 425 0
2019-02-14 02:49:48 GMT 43.134418 7.647792 40,000 6 425 0
2019-02-14 02:49:45 GMT 43.127747 7.646804 40,000 6 425 0
2019-02-14 02:49:41 GMT 43.120361 7.645634 40,000 6 425 0
2019-02-14 02:49:37 GMT 43.113331 7.644523 40,000 6 425 0
2019-02-14 02:49:34 GMT 43.107468 7.643674 40,000 6 425 0
2019-02-14 02:49:31 GMT 43.100418 7.642588 40,000 6 425 0
2019-02-14 02:49:27 GMT 43.094147 7.641566 40,000 6 425 0
2019-02-14 02:49:24 GMT 43.087494 7.640533 40,000 6 425 0
2019-02-14 02:49:21 GMT 43.080463 7.639487 40,000 6 425 0
2019-02-14 02:49:16 GMT 43.073044 7.638309 40,000 6 426 0
2019-02-14 02:49:13 GMT 43.065617 7.637198 40,000 6 426 0
2019-02-14 02:49:10 GMT 43.059330 7.636217 40,000 6 426 0
2019-02-14 02:49:06 GMT 43.051895 7.635051 40,000 6 426 0
2019-02-14 02:49:03 GMT 43.046402 7.634221 40,000 6 426 0
2019-02-14 02:49:00 GMT 43.039734 7.633209 40,000 6 426 0
2019-02-14 02:48:53 GMT 43.026810 7.631218 40,000 6 426 0
2019-02-14 02:48:49 GMT 43.018204 7.629877 40,000 6 426 0
2019-02-14 02:48:44 GMT 43.008404 7.628370 40,000 6 426 0
2019-02-14 02:48:39 GMT 42.999390 7.627003 40,000 6 426 0
2019-02-14 02:48:34 GMT 42.988804 7.625362 40,000 6 426 0
2019-02-14 02:48:31 GMT 42.983734 7.624576 40,000 6 426 0
2019-02-14 02:48:28 GMT 42.979019 7.623809 40,000 6 426 0
2019-02-14 02:48:24 GMT 42.969589 7.622404 40,000 6 426 0
2019-02-14 02:48:21 GMT 42.962967 7.621373 40,000 6 426 0
2019-02-14 02:48:18 GMT 42.959427 7.620807 40,000 6 426 0
2019-02-14 02:48:12 GMT 42.945698 7.618692 40,000 6 426 0
2019-02-14 02:48:08 GMT 42.938278 7.617549 40,000 6 426 0
2019-02-14 02:48:02 GMT 42.925304 7.615553 40,000 6 426 0
2019-02-14 02:47:58 GMT 42.918278 7.614441 40,000 6 426 0
2019-02-14 02:47:54 GMT 42.909256 7.613078 40,000 6 426 0
2019-02-14 02:47:51 GMT 42.898270 7.611354 40,000 6 426 0
2019-02-14 02:47:47 GMT 42.898270 7.611354 40,000 6 426 0
2019-02-14 02:47:44 GMT 42.891220 7.610268 40,000 6 426 0
2019-02-14 02:47:41 GMT 42.885727 7.609437 40,000 6 426 0
2019-02-14 02:47:37 GMT 42.877499 7.608163 40,000 6 426 0
2019-02-14 02:47:31 GMT 42.857529 7.605094 40,000 6 424 0
2019-02-14 02:47:26 GMT 42.857529 7.605094 40,000 6 426 0
2019-02-14 02:47:23 GMT 42.849285 7.603847 40,000 6 426 0
2019-02-14 02:47:19 GMT 42.841827 7.602667 40,000 6 426 0
2019-02-14 02:47:16 GMT 42.837936 7.602092 40,000 6 426 0
2019-02-14 02:47:12 GMT 42.828506 7.600623 40,000 6 426 0
2019-02-14 02:47:09 GMT 42.821075 7.599531 40,000 6 426 0
2019-02-14 02:47:06 GMT 42.817165 7.598942 40,000 6 426 0
2019-02-14 02:47:03 GMT 42.812466 7.598223 40,000 6 426 0
2019-02-14 02:47:00 GMT 42.805435 7.597110 40,000 6 424 0
2019-02-14 02:46:56 GMT 42.797565 7.595896 40,000 6 425 0
2019-02-14 02:46:52 GMT 42.788956 7.594619 40,000 6 425 0
2019-02-14 02:46:46 GMT 42.777225 7.592830 40,000 6 425 0
2019-02-14 02:46:41 GMT 42.768658 7.591489 40,000 6 425 0
2019-02-14 02:46:36 GMT 42.758881 7.589992 40,000 6 425 0
2019-02-14 02:46:33 GMT 42.749897 7.588615 40,000 6 425 0
2019-02-14 02:46:28 GMT 42.741283 7.587273 40,000 6 425 0
2019-02-14 02:46:25 GMT 42.737373 7.586698 40,000 6 425 0
2019-02-14 02:46:21 GMT 42.728394 7.585311 40,000 6 424 0
2019-02-14 02:46:14 GMT 42.716675 7.583563 40,000 6 424 0
2019-02-14 02:46:10 GMT 42.708511 7.582291 40,000 6 424 -64
2019-02-14 02:46:06 GMT 42.699902 7.581014 40,000 6 424 -64
2019-02-14 02:46:02 GMT 42.691727 7.579755 40,000 6 424 0
2019-02-14 02:45:59 GMT 42.686634 7.578970 40,000 6 424 0
2019-02-14 02:45:54 GMT 42.676895 7.577508 40,000 6 424 0
2019-02-14 02:45:50 GMT 42.669502 7.576351 40,000 6 424 0
2019-02-14 02:45:46 GMT 42.658997 7.574761 40,000 6 424 0
2019-02-14 02:45:42 GMT 42.653114 7.573860 40,000 6 424 0
2019-02-14 02:45:39 GMT 42.646133 7.572838 40,000 6 424 0
2019-02-14 02:45:35 GMT 42.632446 7.570766 40,000 6 424 0
2019-02-14 02:45:32 GMT 42.632446 7.570766 40,000 6 424 0
2019-02-14 02:45:28 GMT 42.626221 7.569830 40,000 6 424 0
2019-02-14 02:45:25 GMT 42.619217 7.568769 40,000 6 424 0
2019-02-14 02:45:21 GMT 42.612167 7.567707 40,000 6 424 0
2019-02-14 02:45:18 GMT 42.606720 7.566833 40,000 6 424 0
2019-02-14 02:45:15 GMT 42.599716 7.565772 40,000 6 424 64
2019-02-14 02:45:11 GMT 42.591888 7.564524 40,000 6 424 0
2019-02-14 02:45:08 GMT 42.584885 7.563463 40,000 6 424 0
2019-02-14 02:45:04 GMT 42.579796 7.562682 40,000 6 424 0
2019-02-14 02:45:00 GMT 42.568497 7.560966 40,000 6 425 0
2019-02-14 02:44:57 GMT 42.565338 7.560466 40,000 6 425 0
2019-02-14 02:44:52 GMT 42.555222 7.558968 40,000 6 425 0
2019-02-14 02:44:49 GMT 42.549351 7.558019 40,000 6 425 0
2019-02-14 02:44:44 GMT 42.539158 7.556486 40,000 6 425 0
2019-02-14 02:44:41 GMT 42.533710 7.555656 40,000 6 425 0
2019-02-14 02:44:37 GMT 42.525467 7.554411 40,000 6 426 0
2019-02-14 02:44:33 GMT 42.519604 7.553548 40,000 6 426 0
2019-02-14 02:44:30 GMT 42.513317 7.552590 40,000 6 426 0
2019-02-14 02:44:26 GMT 42.505096 7.551353 40,000 6 426 0
2019-02-14 02:44:23 GMT 42.499603 7.550541 40,000 6 426 0
2019-02-14 02:44:20 GMT 42.492977 7.549524 40,000 6 427 0
2019-02-14 02:44:16 GMT 42.483524 7.548118 40,000 6 427 0
2019-02-14 02:44:11 GMT 42.472538 7.546458 40,000 6 427 0
2019-02-14 02:44:08 GMT 42.468201 7.545797 40,000 6 427 0
2019-02-14 02:44:03 GMT 42.459179 7.544414 40,000 6 428 0
2019-02-14 02:44:00 GMT 42.453278 7.543550 40,000 6 428 0
2019-02-14 02:43:57 GMT 42.448563 7.542801 40,000 6 428 0
2019-02-14 02:43:53 GMT 42.439487 7.541476 40,000 6 428 0
2019-02-14 02:43:48 GMT 42.429657 7.539992 40,000 6 428 0
2019-02-14 02:43:45 GMT 42.422962 7.538984 40,000 6 428 0
2019-02-14 02:43:40 GMT 42.413910 7.537557 40,000 6 429 0
2019-02-14 02:43:37 GMT 42.408371 7.536746 40,000 6 429 0
2019-02-14 02:43:33 GMT 42.398117 7.535185 40,000 6 429 0
2019-02-14 02:43:29 GMT 42.393402 7.534499 40,000 6 429 0
2019-02-14 02:43:26 GMT 42.386307 7.533438 40,000 6 429 0
2019-02-14 02:43:22 GMT 42.378784 7.532278 40,000 6 429 0
2019-02-14 02:43:19 GMT 42.373672 7.531502 40,000 6 429 0
2019-02-14 02:43:16 GMT 42.367748 7.530617 40,000 6 429 0
2019-02-14 02:43:13 GMT 42.353943 7.528506 40,000 6 429 0
2019-02-14 02:43:10 GMT 42.353943 7.528506 40,000 6 429 0
2019-02-14 02:43:07 GMT 42.347221 7.527487 40,000 6 429 0
2019-02-14 02:43:03 GMT 42.333435 7.525447 40,000 6 429 0
2019-02-14 02:42:59 GMT 42.333435 7.525447 40,000 6 429 0
2019-02-14 02:42:56 GMT 42.327530 7.524549 40,000 6 429 0
2019-02-14 02:42:52 GMT 42.317688 7.523075 40,000 6 429 0
2019-02-14 02:42:49 GMT 42.313705 7.522451 40,000 6 429 0
2019-02-14 02:42:46 GMT 42.307434 7.521515 40,000 6 429 0
2019-02-14 02:42:41 GMT 42.297958 7.520079 40,000 6 429 0
2019-02-14 02:42:38 GMT 42.292057 7.519183 40,000 6 428 0
2019-02-14 02:42:35 GMT 42.286926 7.518394 40,000 6 428 0
2019-02-14 02:42:31 GMT 42.277859 7.517076 40,000 6 428 0
2019-02-14 02:42:28 GMT 42.271957 7.516147 40,000 6 428 0
2019-02-14 02:42:25 GMT 42.266418 7.515335 40,000 6 428 0
2019-02-14 02:42:22 GMT 42.258957 7.514201 40,000 6 428 0
2019-02-14 02:42:19 GMT 42.254208 7.513499 40,000 6 428 0
2019-02-14 02:42:16 GMT 42.247131 7.512413 40,000 6 428 0
2019-02-14 02:42:11 GMT 42.232937 7.510305 40,000 6 428 0
2019-02-14 02:42:05 GMT 42.227051 7.509405 40,000 6 428 0
2019-02-14 02:42:01 GMT 42.217575 7.507969 40,000 6 428 0
2019-02-14 02:41:55 GMT 42.206165 7.506281 40,000 6 428 0
2019-02-14 02:41:49 GMT 42.194778 7.504536 40,000 6 427 0
2019-02-14 02:41:46 GMT 42.190063 7.503849 40,000 6 423 0
2019-02-14 02:41:43 GMT 42.184570 7.502975 40,000 6 427 0
2019-02-14 02:41:40 GMT 42.177475 7.501914 40,000 6 427 0
2019-02-14 02:41:37 GMT 42.172760 7.501228 40,000 6 427 64
2019-02-14 02:41:34 GMT 42.165295 7.500085 40,000 6 427 64
2019-02-14 02:41:29 GMT 42.154678 7.498481 40,000 6 427 0
2019-02-14 02:41:25 GMT 42.148407 7.497545 40,000 6 426 0
2019-02-14 02:41:18 GMT 42.134663 7.495486 40,000 6 426 0
2019-02-14 02:41:14 GMT 42.126842 7.494337 40,000 6 423 0
2019-02-14 02:41:07 GMT 42.113113 7.492239 40,000 6 426 0
2019-02-14 02:41:04 GMT 42.107620 7.491427 40,000 6 424 0
2019-02-14 02:40:57 GMT 42.093567 7.489305 40,000 6 425 0
2019-02-14 02:40:54 GMT 42.088482 7.488524 40,000 6 423 0
2019-02-14 02:40:47 GMT 42.072098 7.486097 40,000 6 424 0
2019-02-14 02:40:44 GMT 42.068188 7.485458 40,000 6 423 0
2019-02-14 02:40:37 GMT 42.054565 7.483437 40,000 6 423 0
2019-02-14 02:40:34 GMT 42.047516 7.482376 40,000 6 423 0
2019-02-14 02:40:27 GMT 42.033554 7.480316 40,000 6 422 0
2019-02-14 02:40:24 GMT 42.027733 7.479454 40,000 6 422 0
2019-02-14 02:40:15 GMT 42.010601 7.476899 40,000 6 422 0
2019-02-14 02:40:11 GMT 42.004807 7.476071 40,000 6 422 0
2019-02-14 02:40:06 GMT 41.983841 7.472950 40,000 6 421 0
2019-02-14 02:39:58 GMT 41.978439 7.472139 40,000 6 421 0
2019-02-14 02:39:55 GMT 41.972992 7.471327 40,000 6 421 0
2019-02-14 02:39:52 GMT 41.967590 7.470516 40,000 6 421 0
2019-02-14 02:39:45 GMT 41.954407 7.468518 40,000 6 421 0
2019-02-14 02:39:42 GMT 41.948593 7.467637 40,000 6 421 0
2019-02-14 02:39:35 GMT 41.934265 7.465522 40,000 6 421 0
2019-02-14 02:39:32 GMT 41.928864 7.464711 40,000 6 421 0
2019-02-14 02:39:25 GMT 41.915310 7.462719 40,000 6 421 0
2019-02-14 02:39:22 GMT 41.908722 7.461714 40,000 6 421 0
2019-02-14 02:39:14 GMT 41.892078 7.459206 40,000 6 421 0
2019-02-14 02:39:06 GMT 41.877731 7.457095 40,000 6 421 0
2019-02-14 02:39:03 GMT 41.871922 7.456204 40,000 6 421 0
2019-02-14 02:38:54 GMT 41.854523 7.453662 40,000 6 421 0
2019-02-14 02:38:51 GMT 41.849854 7.452975 40,000 6 421 0
2019-02-14 02:38:46 GMT 41.839050 7.451352 40,000 6 421 0
2019-02-14 02:38:42 GMT 41.832825 7.450478 40,000 6 421 0
2019-02-14 02:38:39 GMT 41.827045 7.449625 40,000 6 421 0
2019-02-14 02:38:34 GMT 41.814285 7.447669 40,000 6 421 0
2019-02-14 02:38:29 GMT 41.806145 7.446495 40,000 6 421 0
2019-02-14 02:38:24 GMT 41.797256 7.445172 40,000 6 421 0
2019-02-14 02:38:21 GMT 41.789898 7.444068 40,000 6 421 0
2019-02-14 02:38:16 GMT 41.778625 7.442426 40,000 6 421 0
2019-02-14 02:38:11 GMT 41.772446 7.441489 40,000 6 421 0
2019-02-14 02:38:08 GMT 41.765083 7.440363 40,000 6 421 0
2019-02-14 02:38:03 GMT 41.755417 7.438930 40,000 6 421 0
2019-02-14 02:37:59 GMT 41.749191 7.437994 40,000 6 421 0
2019-02-14 02:37:56 GMT 41.734875 7.435892 40,000 6 421 0
2019-02-14 02:37:53 GMT 41.734875 7.435892 40,000 6 421 0
2019-02-14 02:37:50 GMT 41.729427 7.435061 40,000 6 421 0
2019-02-14 02:37:45 GMT 41.721699 7.433912 40,000 6 422 0
2019-02-14 02:37:42 GMT 41.714714 7.432890 40,000 6 421 0
2019-02-14 02:37:39 GMT 41.709686 7.432126 40,000 6 422 0
2019-02-14 02:37:36 GMT 41.703869 7.431293 40,000 6 422 0
2019-02-14 02:37:33 GMT 41.697632 7.430399 40,000 6 422 0
2019-02-14 02:37:29 GMT 41.689114 7.429121 40,000 6 422 0
2019-02-14 02:37:26 GMT 41.683666 7.428291 40,000 6 422 0
2019-02-14 02:37:23 GMT 41.679008 7.427652 40,000 6 422 0
2019-02-14 02:37:20 GMT 41.672424 7.426633 40,000 6 422 0
2019-02-14 02:37:16 GMT 41.665043 7.425544 40,000 6 422 0
2019-02-14 02:37:13 GMT 41.657269 7.424394 40,000 6 422 0
2019-02-14 02:37:10 GMT 41.651459 7.423512 40,000 6 422 0
2019-02-14 02:37:07 GMT 41.648750 7.423117 40,000 6 422 0
2019-02-14 02:37:04 GMT 41.635162 7.421140 40,000 6 422 0
2019-02-14 02:37:01 GMT 41.635162 7.421140 40,000 6 422 0
2019-02-14 02:36:58 GMT 41.628548 7.420179 40,000 6 422 0
2019-02-14 02:36:53 GMT 41.619984 7.418901 40,000 6 422 0
2019-02-14 02:36:50 GMT 41.612999 7.417879 40,000 6 422 0
2019-02-14 02:36:47 GMT 41.607971 7.417082 40,000 6 422 0
2019-02-14 02:36:44 GMT 41.593964 7.415085 40,000 6 422 0
2019-02-14 02:36:40 GMT 41.593964 7.415085 40,000 6 422 0
2019-02-14 02:36:35 GMT 41.583485 7.413536 40,000 6 422 0
2019-02-14 02:36:30 GMT 41.574173 7.412195 40,000 6 422 0
2019-02-14 02:36:27 GMT 41.568329 7.411339 40,000 6 422 0
2019-02-14 02:36:24 GMT 41.563282 7.410598 40,000 6 422 0
2019-02-14 02:36:21 GMT 41.557480 7.409779 40,000 6 422 0
2019-02-14 02:36:14 GMT 41.543076 7.407659 40,000 6 422 0
2019-02-14 02:36:08 GMT 41.533024 7.406190 40,000 6 422 0
2019-02-14 02:36:04 GMT 41.524063 7.404848 40,000 6 422 0
2019-02-14 02:35:58 GMT 41.512028 7.403061 40,000 6 422 0
2019-02-14 02:35:54 GMT 41.505836 7.402166 40,000 6 422 0
2019-02-14 02:35:51 GMT 41.499599 7.401208 40,000 6 422 0
2019-02-14 02:35:48 GMT 41.494537 7.400478 40,000 6 422 0
2019-02-14 02:35:43 GMT 41.484467 7.398980 40,000 6 423 0
2019-02-14 02:35:39 GMT 41.473156 7.397312 40,000 6 423 0
2019-02-14 02:35:34 GMT 41.466568 7.396358 40,000 6 423 0
2019-02-14 02:35:31 GMT 41.460728 7.395523 40,000 6 423 0
2019-02-14 02:35:27 GMT 41.453339 7.394423 40,000 6 423 0
2019-02-14 02:35:24 GMT 41.445557 7.393299 40,000 6 423 0
2019-02-14 02:35:21 GMT 41.441269 7.392713 40,000 6 423 0
2019-02-14 02:35:17 GMT 41.433449 7.391563 40,000 6 424 0
2019-02-14 02:35:13 GMT 41.425278 7.390366 40,000 6 424 0
2019-02-14 02:35:10 GMT 41.420227 7.389647 40,000 6 424 0
2019-02-14 02:35:07 GMT 41.413559 7.388680 40,000 6 424 0
2019-02-14 02:35:03 GMT 41.406555 7.387619 40,000 6 424 0
2019-02-14 02:35:00 GMT 41.401466 7.386900 40,000 6 424 0
2019-02-14 02:34:57 GMT 41.386276 7.384644 40,000 6 424 0
2019-02-14 02:34:53 GMT 41.386276 7.384644 40,000 6 424 0
2019-02-14 02:34:50 GMT 41.379227 7.383606 40,000 6 425 0
2019-02-14 02:34:47 GMT 41.376114 7.383179 40,000 6 425 0
2019-02-14 02:34:41 GMT 41.364395 7.381470 40,000 6 425 0
2019-02-14 02:34:38 GMT 41.355377 7.380128 40,000 6 425 0
2019-02-14 02:34:33 GMT 41.346813 7.378880 40,000 6 425 0
2019-02-14 02:34:30 GMT 41.341736 7.378113 40,000 6 425 0
2019-02-14 02:34:27 GMT 41.335873 7.377257 40,000 6 425 0
2019-02-14 02:34:20 GMT 41.322559 7.375322 40,000 6 425 0
2019-02-14 02:34:16 GMT 41.315140 7.374207 40,000 6 424 0
2019-02-14 02:34:13 GMT 41.306965 7.373012 40,000 6 425 0
2019-02-14 02:34:10 GMT 41.302643 7.372375 40,000 6 424 0
2019-02-14 02:34:07 GMT 41.297195 7.371582 40,000 6 424 0
2019-02-14 02:34:03 GMT 41.286255 7.369995 40,000 6 424 0
2019-02-14 02:33:59 GMT 41.282364 7.369385 40,000 6 424 0
2019-02-14 02:33:56 GMT 41.276474 7.368518 40,000 6 424 0
2019-02-14 02:33:52 GMT 41.266708 7.367065 40,000 6 424 0
2019-02-14 02:33:49 GMT 41.262817 7.366516 40,000 6 424 0
2019-02-14 02:33:45 GMT 41.253056 7.365085 40,000 6 425 0
2019-02-14 02:33:39 GMT 41.243271 7.363647 40,000 6 425 0
2019-02-14 02:33:36 GMT 41.237415 7.362775 40,000 6 425 0
2019-02-14 02:33:32 GMT 41.228058 7.361402 40,000 6 425 0
2019-02-14 02:33:28 GMT 41.219055 7.360107 40,000 6 425 0
2019-02-14 02:33:25 GMT 41.214745 7.359529 40,000 6 425 0
2019-02-14 02:33:19 GMT 41.203445 7.357849 40,000 6 425 0
2019-02-14 02:33:15 GMT 41.195240 7.356595 40,000 6 425 -64
2019-02-14 02:33:11 GMT 41.187420 7.355472 40,000 6 424 0
2019-02-14 02:33:08 GMT 41.181927 7.354660 40,000 6 424 0
2019-02-14 02:33:05 GMT 41.170238 7.352975 40,000 6 424 0
2019-02-14 02:32:59 GMT 41.162418 7.351851 40,000 6 424 0
2019-02-14 02:32:54 GMT 41.154236 7.350647 40,000 6 426 0
2019-02-14 02:32:51 GMT 41.148743 7.349854 40,000 6 425 0
2019-02-14 02:32:48 GMT 41.142075 7.348855 40,000 6 425 0
2019-02-14 02:32:44 GMT 41.134689 7.347778 40,000 6 425 0
2019-02-14 02:32:40 GMT 41.127228 7.346732 40,000 6 425 0
2019-02-14 02:32:37 GMT 41.122147 7.345947 40,000 6 425 0
2019-02-14 02:32:34 GMT 41.115494 7.344985 40,000 6 425 0
2019-02-14 02:32:31 GMT 41.108467 7.343986 40,000 6 425 0
2019-02-14 02:32:27 GMT 41.102180 7.343049 40,000 6 425 0
2019-02-14 02:32:24 GMT 41.096329 7.342224 40,000 6 426 0
2019-02-14 02:32:21 GMT 41.088501 7.341064 40,000 6 426 0
2019-02-14 02:32:17 GMT 41.081837 7.340116 40,000 6 426 0
2019-02-14 02:32:12 GMT 41.068909 7.338257 40,000 6 426 0
2019-02-14 02:32:06 GMT 41.058331 7.336682 40,000 6 426 0
2019-02-14 02:32:03 GMT 41.054371 7.336121 40,000 6 427 0
2019-02-14 02:32:00 GMT 41.047714 7.335205 40,000 6 427 0
2019-02-14 02:31:54 GMT 41.036308 7.333561 40,000 6 427 0
2019-02-14 02:31:51 GMT 41.030025 7.332687 40,000 6 427 0
2019-02-14 02:31:47 GMT 41.024139 7.331848 40,000 6 427 0
2019-02-14 02:31:43 GMT 41.014709 7.330444 40,000 6 427 0
2019-02-14 02:31:40 GMT 41.008842 7.329629 40,000 6 427 0
2019-02-14 02:31:35 GMT 40.998650 7.328131 40,000 6 427 0
2019-02-14 02:31:32 GMT 40.994293 7.327515 40,000 6 427 0
2019-02-14 02:31:26 GMT 40.982914 7.325883 40,000 6 427 0
2019-02-14 02:31:23 GMT 40.975433 7.324768 40,000 6 427 0
2019-02-14 02:31:19 GMT 40.968018 7.323699 40,000 6 426 0
2019-02-14 02:31:16 GMT 40.962112 7.322815 40,000 6 426 0
2019-02-14 02:31:13 GMT 40.956619 7.322021 40,000 6 426 0
2019-02-14 02:31:09 GMT 40.947189 7.320679 40,000 6 426 0
2019-02-14 02:31:04 GMT 40.938583 7.319397 40,000 6 426 0
2019-02-14 02:31:00 GMT 40.925995 7.317566 40,000 6 426 0
2019-02-14 02:30:54 GMT 40.918945 7.316589 40,000 6 426 0
2019-02-14 02:30:46 GMT 40.902889 7.314273 40,000 6 426 0
2019-02-14 02:30:42 GMT 40.895817 7.313212 40,000 6 426 0
2019-02-14 02:30:38 GMT 40.886414 7.311901 40,000 6 426 0
2019-02-14 02:30:32 GMT 40.874680 7.310215 40,000 6 426 0
2019-02-14 02:30:27 GMT 40.866814 7.309029 40,000 6 425 0
2019-02-14 02:30:22 GMT 40.857410 7.307718 40,000 6 426 0
2019-02-14 02:30:17 GMT 40.846470 7.306158 40,000 6 426 0
2019-02-14 02:30:12 GMT 40.837463 7.304871 40,000 6 426 0
2019-02-14 02:30:07 GMT 40.826870 7.303349 40,000 6 425 0
2019-02-14 02:30:02 GMT 40.817093 7.301941 40,000 6 425 0
2019-02-14 02:29:57 GMT 40.807320 7.300540 40,000 6 425 0
2019-02-14 02:29:52 GMT 40.796379 7.298979 40,000 6 425 0
2019-02-14 02:29:46 GMT 40.786186 7.297544 40,000 6 425 0
2019-02-14 02:29:43 GMT 40.779156 7.296482 40,000 6 425 0
2019-02-14 02:29:36 GMT 40.767426 7.294797 40,000 6 425 0
2019-02-14 02:29:31 GMT 40.756073 7.293152 40,000 6 425 0
2019-02-14 02:29:26 GMT 40.747467 7.291931 40,000 6 425 0
2019-02-14 02:29:21 GMT 40.735703 7.290222 40,000 6 425 0
2019-02-14 02:29:15 GMT 40.726318 7.288818 40,000 6 425 0
2019-02-14 02:29:10 GMT 40.715752 7.287306 40,000 6 425 0
2019-02-14 02:29:05 GMT 40.695408 7.284373 40,000 6 425 0
2019-02-14 02:28:59 GMT 40.695408 7.284373 40,000 6 425 0
2019-02-14 02:28:55 GMT 40.684467 7.282812 40,000 6 425 0
2019-02-14 02:28:52 GMT 40.678230 7.281938 40,000 6 425 0
2019-02-14 02:28:49 GMT 40.674683 7.281433 40,000 6 425 0
2019-02-14 02:28:45 GMT 40.667244 7.280315 40,000 6 425 64
2019-02-14 02:28:39 GMT 40.654770 7.278567 40,000 6 425 0
2019-02-14 02:28:34 GMT 40.644619 7.277069 40,000 6 424 0
2019-02-14 02:28:29 GMT 40.634033 7.275574 40,000 6 425 0
2019-02-14 02:28:25 GMT 40.627029 7.274536 40,000 6 425 0
2019-02-14 02:28:21 GMT 40.619202 7.273376 40,000 6 425 0
2019-02-14 02:28:18 GMT 40.614532 7.272705 40,000 6 425 0
2019-02-14 02:28:14 GMT 40.606308 7.271576 40,000 6 425 64
2019-02-14 02:28:11 GMT 40.598488 7.270452 40,000 6 425 0
2019-02-14 02:28:08 GMT 40.593830 7.269766 40,000 6 425 64
2019-02-14 02:28:04 GMT 40.586800 7.268767 40,000 6 425 0
2019-02-14 02:28:01 GMT 40.573105 7.266785 40,000 6 425 0
2019-02-14 02:27:58 GMT 40.573105 7.266785 40,000 6 425 0
2019-02-14 02:27:53 GMT 40.565277 7.265686 40,000 6 425 0
2019-02-14 02:27:50 GMT 40.559052 7.264771 40,000 6 425 0
2019-02-14 02:27:47 GMT 40.553192 7.263898 40,000 6 425 0
2019-02-14 02:27:40 GMT 40.537125 7.261658 40,000 6 425 0
2019-02-14 02:27:36 GMT 40.532848 7.261027 40,000 6 425 0
2019-02-14 02:27:29 GMT 40.518787 7.259029 40,000 6 426 0
2019-02-14 02:27:26 GMT 40.512131 7.258057 40,000 6 425 0
2019-02-14 02:27:20 GMT 40.498856 7.256165 40,000 6 425 0
2019-02-14 02:27:16 GMT 40.492207 7.255221 40,000 6 425 0
2019-02-14 02:27:09 GMT 40.479263 7.253418 40,000 6 425 0
2019-02-14 02:27:06 GMT 40.472260 7.252380 40,000 6 425 0
2019-02-14 02:26:59 GMT 40.459339 7.250540 40,000 6 426 0
2019-02-14 02:26:55 GMT 40.451889 7.249512 40,000 6 426 0
2019-02-14 02:26:49 GMT 40.438999 7.247668 40,000 6 426 0
2019-02-14 02:26:44 GMT 40.431519 7.246582 40,000 6 426 0
2019-02-14 02:26:38 GMT 40.418976 7.244812 40,000 6 426 0
2019-02-14 02:26:35 GMT 40.411148 7.243713 40,000 6 426 0
2019-02-14 02:26:28 GMT 40.399384 7.242004 40,000 6 427 0
2019-02-14 02:26:22 GMT 40.386841 7.240173 40,000 6 427 0
2019-02-14 02:26:18 GMT 40.379364 7.239116 40,000 6 427 0
2019-02-14 02:26:14 GMT 40.364422 7.236994 40,000 6 428 0
2019-02-14 02:26:08 GMT 40.359283 7.236267 40,000 6 428 0
2019-02-14 02:26:03 GMT 40.349854 7.234985 40,000 6 428 -64
2019-02-14 02:25:57 GMT 40.338444 7.233373 40,000 6 428 0
2019-02-14 02:25:53 GMT 40.329739 7.232125 40,000 6 428 0
2019-02-14 02:25:48 GMT 40.317917 7.230502 40,000 6 429 0
2019-02-14 02:25:43 GMT 40.308838 7.229187 40,000 6 429 0
2019-02-14 02:25:37 GMT 40.298584 7.227722 40,000 6 430 0
2019-02-14 02:25:32 GMT 40.288330 7.226318 40,000 6 429 0
2019-02-14 02:25:27 GMT 40.278076 7.224854 40,000 6 429 0
2019-02-14 02:25:21 GMT 40.267776 7.223389 40,000 6 430 0
2019-02-14 02:25:16 GMT 40.257523 7.221924 40,000 6 430 0
2019-02-14 02:25:11 GMT 40.244064 7.220032 40,000 6 430 0
2019-02-14 02:25:06 GMT 40.237747 7.219116 40,000 6 430 0
2019-02-14 02:24:59 GMT 40.223511 7.217102 40,000 6 430 0
2019-02-14 02:24:56 GMT 40.217548 7.216270 40,000 6 430 0
2019-02-14 02:24:51 GMT 40.205677 7.214584 40,000 6 430 0
2019-02-14 02:24:46 GMT 40.197372 7.213379 40,000 6 430 0
2019-02-14 02:24:39 GMT 40.182312 7.211243 40,000 6 430 0
2019-02-14 02:24:35 GMT 40.175606 7.210340 40,000 6 430 0
2019-02-14 02:24:29 GMT 40.156219 7.207581 40,000 6 430 0
2019-02-14 02:24:26 GMT 40.156219 7.207581 40,000 6 430 0
2019-02-14 02:24:15 GMT 40.135620 7.204712 40,000 6 430 0
2019-02-14 02:24:05 GMT 40.115799 7.201904 40,000 6 431 0
2019-02-14 02:23:57 GMT 40.100330 7.199728 40,000 6 429 0
2019-02-14 02:23:54 GMT 40.095200 7.198975 40,000 6 431 0
2019-02-14 02:23:45 GMT 40.074554 7.196106 40,000 6 431 0
2019-02-14 02:23:34 GMT 40.054779 7.193359 40,000 6 430 0
2019-02-14 02:23:24 GMT 40.034958 7.190552 40,000 6 430 0
2019-02-14 02:23:14 GMT 40.014812 7.187680 40,000 6 429 0
2019-02-14 02:23:04 GMT 39.994240 7.184809 40,000 6 429 0
2019-02-14 02:22:53 GMT 39.974121 7.181946 40,000 6 429 0
2019-02-14 02:22:43 GMT 39.954391 7.179199 40,000 6 429 0
2019-02-14 02:22:33 GMT 39.933838 7.176270 40,000 6 429 0
2019-02-14 02:22:25 GMT 39.918449 7.174133 40,000 6 429 0
2019-02-14 02:22:22 GMT 39.913700 7.173462 40,000 6 429 0
2019-02-14 02:22:15 GMT 39.898666 7.171326 40,000 6 429 0
2019-02-14 02:22:12 GMT 39.893555 7.170609 40,000 6 429 0
2019-02-14 02:22:04 GMT 39.875381 7.168042 40,000 6 429 0
2019-02-14 02:21:52 GMT 39.852859 7.164856 40,000 6 429 -64
2019-02-14 02:21:45 GMT 39.835831 7.162549 40,000 6 429 0
2019-02-14 02:21:41 GMT 39.832672 7.162071 40,000 6 429 0
2019-02-14 02:21:32 GMT 39.812546 7.159302 40,000 6 429 0
2019-02-14 02:21:24 GMT 39.797928 7.157235 40,000 6 429 0
2019-02-14 02:21:21 GMT 39.792015 7.156433 40,000 6 429 0
2019-02-14 02:21:14 GMT 39.778152 7.154548 40,000 6 430 0
2019-02-14 02:21:11 GMT 39.771835 7.153652 40,000 6 430 0
2019-02-14 02:21:01 GMT 39.752060 7.150905 40,000 6 430 0
2019-02-14 02:20:50 GMT 39.731079 7.147949 40,000 6 430 0
2019-02-14 02:20:43 GMT 39.716446 7.145950 40,000 6 429 0
2019-02-14 02:20:40 GMT 39.706970 7.144576 40,000 6 429 0
2019-02-14 02:20:33 GMT 39.697887 7.143311 40,000 6 429 0
2019-02-14 02:20:28 GMT 39.687241 7.141830 40,000 6 429 0
2019-02-14 02:20:18 GMT 39.666279 7.138977 40,000 6 429 0
2019-02-14 02:20:13 GMT 39.657990 7.137829 40,000 6 429 0
2019-02-14 02:20:09 GMT 39.649704 7.136658 40,000 6 429 0
2019-02-14 02:20:06 GMT 39.644955 7.135986 40,000 6 429 0
2019-02-14 02:20:00 GMT 39.630386 7.133948 40,000 6 429 0
2019-02-14 02:19:57 GMT 39.625626 7.133291 40,000 6 429 0
2019-02-14 02:19:47 GMT 39.604736 7.130371 40,000 6 429 0
2019-02-14 02:19:39 GMT 39.590103 7.128336 40,000 6 428 0
2019-02-14 02:19:36 GMT 39.584610 7.127559 40,000 6 428 0
2019-02-14 02:19:28 GMT 39.569641 7.125470 40,000 6 428 0
2019-02-14 02:19:25 GMT 39.564102 7.124693 40,000 6 428 0
2019-02-14 02:19:19 GMT 39.549522 7.122681 40,000 6 428 0
2019-02-14 02:19:15 GMT 39.543240 7.121826 40,000 6 428 0
2019-02-14 02:19:08 GMT 39.529449 7.119917 40,000 6 428 0
2019-02-14 02:19:04 GMT 39.522354 7.118962 40,000 6 428 0
2019-02-14 02:18:55 GMT 39.502625 7.116275 40,000 6 428 0
2019-02-14 02:18:48 GMT 39.488869 7.114319 40,000 6 428 0
2019-02-14 02:18:44 GMT 39.482162 7.113409 40,000 6 428 0
2019-02-14 02:18:40 GMT 39.475067 7.112394 40,000 6 428 0
2019-02-14 02:18:37 GMT 39.469173 7.111572 40,000 6 428 0
2019-02-14 02:18:31 GMT 39.457764 7.110005 40,000 6 428 0
2019-02-14 02:18:27 GMT 39.448288 7.108692 40,000 6 428 0
2019-02-14 02:18:22 GMT 39.437302 7.107199 40,000 6 428 0
2019-02-14 02:18:16 GMT 39.428257 7.105896 40,000 6 428 0
2019-02-14 02:18:11 GMT 39.417618 7.104452 40,000 6 427 0
2019-02-14 02:18:07 GMT 39.408966 7.103199 40,000 6 427 0
2019-02-14 02:18:03 GMT 39.399906 7.101990 40,000 6 427 0
2019-02-14 02:17:56 GMT 39.388126 7.100342 40,000 6 427 0
2019-02-14 02:17:52 GMT 39.380260 7.099243 40,000 6 427 0
2019-02-14 02:17:46 GMT 39.368088 7.097526 40,000 6 427 0
2019-02-14 02:17:42 GMT 39.347626 7.094660 40,000 6 427 0
2019-02-14 02:17:35 GMT 39.347626 7.094660 40,000 6 427 0
2019-02-14 02:17:32 GMT 39.339390 7.093506 40,000 6 427 0
2019-02-14 02:17:25 GMT 39.327610 7.091919 40,000 6 427 0
2019-02-14 02:17:21 GMT 39.316223 7.090302 40,000 6 427 0
2019-02-14 02:17:15 GMT 39.307571 7.089107 40,000 6 427 0
2019-02-14 02:17:10 GMT 39.296932 7.087646 40,000 6 427 0
2019-02-14 02:17:05 GMT 39.287109 7.086301 40,000 6 427 0
2019-02-14 02:17:00 GMT 39.278458 7.085107 40,000 6 427 0
2019-02-14 02:16:54 GMT 39.267094 7.083557 40,000 6 427 0
2019-02-14 02:16:50 GMT 39.256851 7.082153 40,000 6 427 0
2019-02-14 02:16:45 GMT 39.246655 7.080750 40,000 6 427 0
2019-02-14 02:16:39 GMT 39.236023 7.079315 40,000 5 427 0
2019-02-14 02:16:34 GMT 39.226593 7.078061 40,000 6 427 0
2019-02-14 02:16:30 GMT 39.218304 7.076965 40,000 6 427 0
2019-02-14 02:16:24 GMT 39.206131 7.075255 40,000 6 427 0
2019-02-14 02:16:19 GMT 39.197079 7.074036 40,000 6 427 0
2019-02-14 02:16:13 GMT 39.186092 7.072510 40,000 6 427 0
2019-02-14 02:16:09 GMT 39.175461 7.071075 40,000 6 428 0
2019-02-14 02:16:04 GMT 39.166031 7.069762 40,000 6 428 0
2019-02-14 02:16:00 GMT 39.156948 7.068481 40,000 6 428 0
2019-02-14 02:15:53 GMT 39.146347 7.067015 40,000 6 428 0
2019-02-14 02:15:46 GMT 39.130554 7.064866 40,000 6 428 0
2019-02-14 02:15:42 GMT 39.125839 7.064209 40,000 6 428 0
2019-02-14 02:15:36 GMT 39.111237 7.062256 40,000 6 429 0
2019-02-14 02:15:33 GMT 39.106110 7.061522 40,000 6 429 0
2019-02-14 02:15:23 GMT 39.086002 7.058838 40,000 6 429 0
2019-02-14 02:15:12 GMT 39.065475 7.056030 40,000 6 429 0
2019-02-14 02:15:01 GMT 39.044586 7.053163 40,000 6 429 0
2019-02-14 02:14:52 GMT 39.024857 7.050416 40,000 6 428 0
2019-02-14 02:14:41 GMT 39.005127 7.047670 40,000 6 428 0
2019-02-14 02:14:32 GMT 38.984619 7.044863 40,000 6 429 0
2019-02-14 02:14:21 GMT 38.964500 7.042053 40,000 6 429 0
2019-02-14 02:14:11 GMT 38.944717 7.039368 40,000 6 429 0
2019-02-14 02:14:01 GMT 38.924187 7.036560 40,000 6 429 0
2019-02-14 02:13:51 GMT 38.903610 7.033752 40,000 6 430 0
2019-02-14 02:13:40 GMT 38.884232 7.031071 40,000 6 430 0
2019-02-14 02:13:30 GMT 38.863678 7.028324 40,000 6 430 0
2019-02-14 02:13:20 GMT 38.843857 7.025637 40,000 6 430 0
2019-02-14 02:13:09 GMT 38.822891 7.022766 40,000 6 430 0
2019-02-14 02:13:00 GMT 38.803528 7.020204 40,000 6 430 0
2019-02-14 02:12:49 GMT 38.782974 7.017457 40,000 5 429 0
2019-02-14 02:12:39 GMT 38.762421 7.014771 40,000 5 429 0
2019-02-14 02:12:28 GMT 38.741867 7.012084 40,000 5 429 0
2019-02-14 02:12:19 GMT 38.721687 7.009460 40,000 6 429 0
2019-02-14 02:12:08 GMT 38.701584 7.006471 40,000 7 429 0
2019-02-14 02:11:58 GMT 38.681854 7.003307 40,000 7 429 0
2019-02-14 02:11:47 GMT 38.661346 7.000023 40,000 7 429 0
2019-02-14 02:11:37 GMT 38.641289 6.996765 40,000 7 429 0
2019-02-14 02:11:28 GMT 38.620762 6.993469 40,000 7 429 0
2019-02-14 02:11:17 GMT 38.601070 6.990295 40,000 7 429 0
2019-02-14 02:11:07 GMT 38.580963 6.987066 40,000 7 429 0
2019-02-14 02:10:56 GMT 38.560894 6.983826 40,000 7 429 0
2019-02-14 02:10:47 GMT 38.540413 6.980530 40,000 7 429 0
2019-02-14 02:10:36 GMT 38.520721 6.977356 40,000 7 428 0
2019-02-14 02:10:26 GMT 38.501076 6.974182 40,000 7 428 0
2019-02-14 02:10:15 GMT 38.479431 6.970706 40,000 7 428 0
2019-02-14 02:10:06 GMT 38.460526 6.967601 40,000 7 429 0
2019-02-14 02:09:55 GMT 38.440464 6.964417 40,000 7 429 -64
2019-02-14 02:09:45 GMT 38.420334 6.961152 40,000 7 429 0
2019-02-14 02:09:34 GMT 38.399452 6.957868 40,000 7 430 0
2019-02-14 02:09:24 GMT 38.379318 6.954638 40,000 7 430 0
2019-02-14 02:09:14 GMT 38.358765 6.951307 40,000 7 430 0
2019-02-14 02:09:04 GMT 38.338989 6.948093 40,000 7 431 0
2019-02-14 02:08:54 GMT 38.319214 6.944937 40,000 7 432 0
2019-02-14 02:08:43 GMT 38.297791 6.941489 40,000 7 432 0
2019-02-14 02:08:34 GMT 38.278320 6.938404 40,000 7 432 0
2019-02-14 02:08:23 GMT 38.258102 6.935178 40,000 7 432 0
2019-02-14 02:08:13 GMT 38.238235 6.932022 40,000 7 433 0
2019-02-14 02:08:02 GMT 38.217152 6.928611 40,000 7 433 0
2019-02-14 02:07:52 GMT 38.197273 6.925447 40,000 7 433 0
2019-02-14 02:07:42 GMT 38.176987 6.922205 40,000 7 434 0
2019-02-14 02:07:32 GMT 38.155842 6.918879 40,000 7 434 0
2019-02-14 02:07:22 GMT 38.135918 6.915655 40,000 7 435 0
2019-02-14 02:07:11 GMT 38.115555 6.912446 40,000 7 435 0
2019-02-14 02:07:02 GMT 38.094772 6.909173 40,000 7 436 0
2019-02-14 02:06:51 GMT 38.074722 6.905901 40,000 7 436 0
2019-02-14 02:06:41 GMT 38.054718 6.902687 40,000 7 437 0
2019-02-14 02:06:30 GMT 38.031418 6.899005 40,000 7 437 0
2019-02-14 02:06:20 GMT 38.013302 6.896130 40,000 7 438 0
2019-02-14 02:06:10 GMT 37.992397 6.892786 40,000 7 438 0
2019-02-14 02:06:00 GMT 37.972286 6.889502 40,000 7 439 0
2019-02-14 02:05:50 GMT 37.950897 6.886149 40,000 7 439 0
2019-02-14 02:05:40 GMT 37.931183 6.883054 40,000 7 439 0
2019-02-14 02:05:30 GMT 37.910614 6.879779 40,000 7 438 0
2019-02-14 02:05:19 GMT 37.888870 6.876331 40,000 7 438 0
2019-02-14 02:05:09 GMT 37.868774 6.873175 40,000 7 437 0
2019-02-14 02:04:58 GMT 37.848274 6.869918 40,000 7 437 0
2019-02-14 02:04:48 GMT 37.827805 6.866630 40,000 7 437 0
2019-02-14 02:04:39 GMT 37.807343 6.863416 40,000 7 436 0
2019-02-14 02:04:28 GMT 37.786926 6.860202 40,000 7 436 0
2019-02-14 02:04:18 GMT 37.766098 6.856871 40,000 7 436 0
2019-02-14 02:04:07 GMT 37.746048 6.853716 40,000 7 436 0
2019-02-14 02:03:57 GMT 37.725655 6.850513 40,000 7 435 0
2019-02-14 02:03:47 GMT 37.705639 6.847348 40,000 7 435 0
2019-02-14 02:03:37 GMT 37.684479 6.843956 40,000 7 435 0
2019-02-14 02:03:27 GMT 37.664856 6.840900 40,000 6 435 0
2019-02-14 02:03:16 GMT 37.643692 6.837645 40,000 6 435 0
2019-02-14 02:03:07 GMT 37.623688 6.834548 40,000 7 435 0
2019-02-14 02:02:56 GMT 37.602905 6.831275 40,000 7 435 0
2019-02-14 02:02:46 GMT 37.582947 6.828061 40,000 7 435 0
2019-02-14 02:02:35 GMT 37.562164 6.824789 40,000 7 435 0
2019-02-14 02:02:26 GMT 37.541027 6.821435 40,000 7 435 0
2019-02-14 02:02:15 GMT 37.521011 6.818330 40,000 7 435 0
2019-02-14 02:02:05 GMT 37.501041 6.815225 40,000 6 435 -64
2019-02-14 02:01:55 GMT 37.480278 6.812001 40,000 7 435 -64
2019-02-14 02:01:44 GMT 37.460258 6.808896 40,000 7 435 0
2019-02-14 02:01:34 GMT 37.439449 6.805612 40,000 7 435 0
2019-02-14 02:01:24 GMT 37.419067 6.802466 40,000 7 436 0
2019-02-14 02:01:13 GMT 37.396637 6.798901 40,000 7 436 0
2019-02-14 02:01:02 GMT 37.375031 6.795511 40,000 7 436 0
2019-02-14 02:00:54 GMT 37.357361 6.792765 40,000 7 436 0
2019-02-14 02:00:43 GMT 37.337311 6.789609 40,000 7 436 0
2019-02-14 02:00:33 GMT 37.317307 6.786512 40,000 7 436 0
2019-02-14 02:00:23 GMT 37.296432 6.783298 40,000 6 436 0
2019-02-14 02:00:12 GMT 37.275650 6.780084 40,000 7 436 0
2019-02-14 02:00:02 GMT 37.255600 6.776987 40,000 7 435 0
2019-02-14 01:59:51 GMT 37.233597 6.773549 40,000 7 435 0
2019-02-14 01:59:42 GMT 37.214417 6.770564 40,000 7 435 -64
2019-02-14 01:59:31 GMT 37.194031 6.767403 40,000 7 435 0
2019-02-14 01:59:21 GMT 37.171646 6.763897 40,000 6 435 0
2019-02-14 01:59:03 GMT 37.138092 6.758754 40,000 6 435 0
2019-02-14 01:59:00 GMT 37.131321 6.757667 40,000 7 434 0
2019-02-14 01:58:50 GMT 37.110558 6.754442 40,000 7 434 0
2019-02-14 01:58:40 GMT 37.091034 6.751391 40,000 7 434 0
2019-02-14 01:58:30 GMT 37.070297 6.748177 40,000 7 434 0
2019-02-14 01:58:20 GMT 37.051941 6.745372 40,000 7 434 0
2019-02-14 01:58:09 GMT 37.029648 6.741924 40,000 7 433 0
2019-02-14 01:57:53 GMT 36.998611 6.737132 40,000 7 432 0
2019-02-14 01:57:50 GMT 36.990269 6.735813 40,000 7 432 0
2019-02-14 01:57:39 GMT 36.969223 6.732574 40,000 7 432 0

Making use of Plane Finder data

You are free to use the raw flight data, aircraft information and images provided in this report for your own purposes provided the data is correctly attributed to Plane Finder. We ask that you please credit Plane Finder and link to planefinder.net in close proximity to the content.

Optionally one of the following logos (no smaller then 150x24px) can be used and must link to planefinder.net

Embedding the Plane Finder map

You are welcome to embed the Plane Finder playback map on your website to offer visitors a more interactive experience. We suggest using the following HTML code:

<iframe src="//planefinder.net/data/report/LH595-D-AIKS-7700-squawk-2019-02-14/map" width="800" height="600" seamless="seamless"></iframe>

Where our data comes from

Plane Finder has a global network of data feeds and antenna radars that receive data broadcast directly from aircraft. The primary technologies used are ADS-B and MLAT. We also show feeds from the FAA and a FLARM glider feed.

Click here to find out more about the Plane Finder network.

How we collect our data